<?xml version="1.0" encoding="utf-8"?>
<gpx xmlns:xsi="http://www.w3.org/2001/XMLSchema-instance" xmlns:xsd="http://www.w3.org/2001/XMLSchema" version="1.1" creator="Shapelink.com" xmlns="http://www.topografix.com/GPX/1/1" xmlns:gpxtpx="http://www.garmin.com/xmlschemas/TrackPointExtension/v1">
  <metadata>
    <name>Sykling 47.20 km, 2012-03-25</name>
    <desc></desc>
    <author><name>Mikael Blom</name></author> 
    <time>2012-03-25T13:41:37Z</time>
  </metadata>
  <trk>
    <name>Sykling 47.20 km, 2012-03-25</name>
    <trkseg>
      <trkpt lat="59.9779711" lon="17.7391968">
        <ele>20.8057</ele>
        <time>2012-03-25T13:41:37Z</time>
      </trkpt>
      <trkpt lat="59.9776395" lon="17.739056">
        <ele>24.651</ele>
        <time>2012-03-25T13:41:43Z</time>
      </trkpt>
      <trkpt lat="59.977254" lon="17.7391138">
        <ele>32.8223</ele>
        <time>2012-03-25T13:41:48Z</time>
      </trkpt>
      <trkpt lat="59.9766915" lon="17.7394121">
        <ele>31.3801</ele>
        <time>2012-03-25T13:41:56Z</time>
      </trkpt>
      <trkpt lat="59.9765552" lon="17.7394967">
        <ele>29.4575</ele>
        <time>2012-03-25T13:41:58Z</time>
      </trkpt>
      <trkpt lat="59.9762384" lon="17.7398153">
        <ele>29.9381</ele>
        <time>2012-03-25T13:42:03Z</time>
      </trkpt>
      <trkpt lat="59.9761133" lon="17.7396926">
        <ele>29.4575</ele>
        <time>2012-03-25T13:42:05Z</time>
      </trkpt>
      <trkpt lat="59.9760583" lon="17.7395884">
        <ele>28.9769</ele>
        <time>2012-03-25T13:42:06Z</time>
      </trkpt>
      <trkpt lat="59.9756266" lon="17.738758">
        <ele>27.0543</ele>
        <time>2012-03-25T13:42:13Z</time>
      </trkpt>
      <trkpt lat="59.9752049" lon="17.7380256">
        <ele>27.5349</ele>
        <time>2012-03-25T13:42:20Z</time>
      </trkpt>
      <trkpt lat="59.9747923" lon="17.7372049">
        <ele>28.0155</ele>
        <time>2012-03-25T13:42:28Z</time>
      </trkpt>
      <trkpt lat="59.9745588" lon="17.7364757">
        <ele>29.4575</ele>
        <time>2012-03-25T13:42:34Z</time>
      </trkpt>
      <trkpt lat="59.9743619" lon="17.7354781">
        <ele>30.8995</ele>
        <time>2012-03-25T13:42:42Z</time>
      </trkpt>
      <trkpt lat="59.9742927" lon="17.7345689">
        <ele>30.8995</ele>
        <time>2012-03-25T13:42:49Z</time>
      </trkpt>
      <trkpt lat="59.9743113" lon="17.7338311">
        <ele>30.8995</ele>
        <time>2012-03-25T13:42:55Z</time>
      </trkpt>
      <trkpt lat="59.9743579" lon="17.7327001">
        <ele>31.8607</ele>
        <time>2012-03-25T13:43:05Z</time>
      </trkpt>
      <trkpt lat="59.9743418" lon="17.7316767">
        <ele>32.3416</ele>
        <time>2012-03-25T13:43:14Z</time>
      </trkpt>
      <trkpt lat="59.9743833" lon="17.7306119">
        <ele>33.3029</ele>
        <time>2012-03-25T13:43:23Z</time>
      </trkpt>
      <trkpt lat="59.9744585" lon="17.7297064">
        <ele>33.7834</ele>
        <time>2012-03-25T13:43:31Z</time>
      </trkpt>
      <trkpt lat="59.9744715" lon="17.7289281">
        <ele>34.2642</ele>
        <time>2012-03-25T13:43:38Z</time>
      </trkpt>
      <trkpt lat="59.9744507" lon="17.7278018">
        <ele>34.7449</ele>
        <time>2012-03-25T13:43:48Z</time>
      </trkpt>
      <trkpt lat="59.9744422" lon="17.7270218">
        <ele>36.1868</ele>
        <time>2012-03-25T13:43:56Z</time>
      </trkpt>
      <trkpt lat="59.9744341" lon="17.7266689">
        <ele>37.1481</ele>
        <time>2012-03-25T13:44:02Z</time>
      </trkpt>
      <trkpt lat="59.9744232" lon="17.7262704">
        <ele>37.1481</ele>
        <time>2012-03-25T13:44:09Z</time>
      </trkpt>
      <trkpt lat="59.974409" lon="17.7259063">
        <ele>37.1481</ele>
        <time>2012-03-25T13:44:15Z</time>
      </trkpt>
      <trkpt lat="59.9743658" lon="17.7253511">
        <ele>36.6675</ele>
        <time>2012-03-25T13:44:21Z</time>
      </trkpt>
      <trkpt lat="59.9742699" lon="17.7246149">
        <ele>36.1868</ele>
        <time>2012-03-25T13:44:28Z</time>
      </trkpt>
      <trkpt lat="59.9741013" lon="17.7234824">
        <ele>36.1868</ele>
        <time>2012-03-25T13:44:38Z</time>
      </trkpt>
      <trkpt lat="59.9739205" lon="17.7226206">
        <ele>35.7061</ele>
        <time>2012-03-25T13:44:46Z</time>
      </trkpt>
      <trkpt lat="59.9736549" lon="17.7218067">
        <ele>35.7061</ele>
        <time>2012-03-25T13:44:54Z</time>
      </trkpt>
      <trkpt lat="59.9733255" lon="17.7211021">
        <ele>35.2255</ele>
        <time>2012-03-25T13:45:02Z</time>
      </trkpt>
      <trkpt lat="59.9728405" lon="17.7204087">
        <ele>35.2255</ele>
        <time>2012-03-25T13:45:12Z</time>
      </trkpt>
      <trkpt lat="59.9724489" lon="17.7200419">
        <ele>34.7449</ele>
        <time>2012-03-25T13:45:19Z</time>
      </trkpt>
      <trkpt lat="59.9719554" lon="17.7196009">
        <ele>34.7449</ele>
        <time>2012-03-25T13:45:28Z</time>
      </trkpt>
      <trkpt lat="59.9713389" lon="17.7190442">
        <ele>33.7834</ele>
        <time>2012-03-25T13:45:39Z</time>
      </trkpt>
      <trkpt lat="59.9709979" lon="17.7187394">
        <ele>33.7834</ele>
        <time>2012-03-25T13:45:45Z</time>
      </trkpt>
      <trkpt lat="59.9705439" lon="17.7183297">
        <ele>33.3029</ele>
        <time>2012-03-25T13:45:53Z</time>
      </trkpt>
      <trkpt lat="59.9698455" lon="17.7177045">
        <ele>33.3029</ele>
        <time>2012-03-25T13:46:05Z</time>
      </trkpt>
      <trkpt lat="59.9693134" lon="17.7173542">
        <ele>34.2642</ele>
        <time>2012-03-25T13:46:14Z</time>
      </trkpt>
      <trkpt lat="59.9687199" lon="17.7171197">
        <ele>34.2642</ele>
        <time>2012-03-25T13:46:24Z</time>
      </trkpt>
      <trkpt lat="59.9683929" lon="17.7169463">
        <ele>33.3029</ele>
        <time>2012-03-25T13:46:29Z</time>
      </trkpt>
      <trkpt lat="59.9680442" lon="17.716577">
        <ele>31.3801</ele>
        <time>2012-03-25T13:46:34Z</time>
      </trkpt>
      <trkpt lat="59.9677699" lon="17.716054">
        <ele>28.9769</ele>
        <time>2012-03-25T13:46:38Z</time>
      </trkpt>
      <trkpt lat="59.9675558" lon="17.7153293">
        <ele>27.0543</ele>
        <time>2012-03-25T13:46:42Z</time>
      </trkpt>
      <trkpt lat="59.967428" lon="17.7145451">
        <ele>25.6123</ele>
        <time>2012-03-25T13:46:46Z</time>
      </trkpt>
      <trkpt lat="59.9673371" lon="17.7137675">
        <ele>26.5736</ele>
        <time>2012-03-25T13:46:51Z</time>
      </trkpt>
      <trkpt lat="59.9672279" lon="17.7130918">
        <ele>28.4962</ele>
        <time>2012-03-25T13:46:57Z</time>
      </trkpt>
      <trkpt lat="59.9670664" lon="17.7124643">
        <ele>29.4575</ele>
        <time>2012-03-25T13:47:04Z</time>
      </trkpt>
      <trkpt lat="59.9668374" lon="17.7118421">
        <ele>29.4575</ele>
        <time>2012-03-25T13:47:11Z</time>
      </trkpt>
      <trkpt lat="59.966566" lon="17.7110169">
        <ele>29.4575</ele>
        <time>2012-03-25T13:47:19Z</time>
      </trkpt>
      <trkpt lat="59.9662912" lon="17.7100541">
        <ele>28.9769</ele>
        <time>2012-03-25T13:47:28Z</time>
      </trkpt>
      <trkpt lat="59.9660678" lon="17.7092707">
        <ele>28.4962</ele>
        <time>2012-03-25T13:47:36Z</time>
      </trkpt>
      <trkpt lat="59.9657781" lon="17.708437">
        <ele>28.9769</ele>
        <time>2012-03-25T13:47:45Z</time>
      </trkpt>
      <trkpt lat="59.9655449" lon="17.7080713">
        <ele>28.9769</ele>
        <time>2012-03-25T13:47:50Z</time>
      </trkpt>
      <trkpt lat="59.9651068" lon="17.707692">
        <ele>28.9769</ele>
        <time>2012-03-25T13:47:58Z</time>
      </trkpt>
      <trkpt lat="59.9646296" lon="17.7073589">
        <ele>28.4962</ele>
        <time>2012-03-25T13:48:07Z</time>
      </trkpt>
      <trkpt lat="59.9641739" lon="17.7071838">
        <ele>27.5349</ele>
        <time>2012-03-25T13:48:15Z</time>
      </trkpt>
      <trkpt lat="59.9636868" lon="17.7071035">
        <ele>27.0543</ele>
        <time>2012-03-25T13:48:23Z</time>
      </trkpt>
      <trkpt lat="59.963133" lon="17.7070828">
        <ele>26.0929</ele>
        <time>2012-03-25T13:48:32Z</time>
      </trkpt>
      <trkpt lat="59.9626451" lon="17.7070528">
        <ele>27.0543</ele>
        <time>2012-03-25T13:48:40Z</time>
      </trkpt>
      <trkpt lat="59.9621325" lon="17.7068288">
        <ele>28.0155</ele>
        <time>2012-03-25T13:48:49Z</time>
      </trkpt>
      <trkpt lat="59.9617288" lon="17.7065161">
        <ele>28.9769</ele>
        <time>2012-03-25T13:48:56Z</time>
      </trkpt>
      <trkpt lat="59.9614183" lon="17.7060696">
        <ele>29.4575</ele>
        <time>2012-03-25T13:49:02Z</time>
      </trkpt>
      <trkpt lat="59.9609896" lon="17.7052779">
        <ele>29.4575</ele>
        <time>2012-03-25T13:49:11Z</time>
      </trkpt>
      <trkpt lat="59.9606793" lon="17.7048477">
        <ele>28.4962</ele>
        <time>2012-03-25T13:49:17Z</time>
      </trkpt>
      <trkpt lat="59.9602373" lon="17.7043349">
        <ele>28.4962</ele>
        <time>2012-03-25T13:49:25Z</time>
      </trkpt>
      <trkpt lat="59.9600112" lon="17.7039274">
        <ele>29.4575</ele>
        <time>2012-03-25T13:49:30Z</time>
      </trkpt>
      <trkpt lat="59.9597407" lon="17.7030474">
        <ele>30.4188</ele>
        <time>2012-03-25T13:49:39Z</time>
      </trkpt>
      <trkpt lat="59.9595085" lon="17.702247">
        <ele>29.9381</ele>
        <time>2012-03-25T13:49:47Z</time>
      </trkpt>
      <trkpt lat="59.9593103" lon="17.7014698">
        <ele>29.4575</ele>
        <time>2012-03-25T13:49:54Z</time>
      </trkpt>
      <trkpt lat="59.9591905" lon="17.7006116">
        <ele>28.9769</ele>
        <time>2012-03-25T13:50:01Z</time>
      </trkpt>
      <trkpt lat="59.9591067" lon="17.6997338">
        <ele>29.9381</ele>
        <time>2012-03-25T13:50:08Z</time>
      </trkpt>
      <trkpt lat="59.9590645" lon="17.6989498">
        <ele>30.8995</ele>
        <time>2012-03-25T13:50:15Z</time>
      </trkpt>
      <trkpt lat="59.9590351" lon="17.6979581">
        <ele>29.4575</ele>
        <time>2012-03-25T13:50:24Z</time>
      </trkpt>
      <trkpt lat="59.9589528" lon="17.6973292">
        <ele>27.5349</ele>
        <time>2012-03-25T13:50:29Z</time>
      </trkpt>
      <trkpt lat="59.9587415" lon="17.6964144">
        <ele>26.5736</ele>
        <time>2012-03-25T13:50:36Z</time>
      </trkpt>
      <trkpt lat="59.9584766" lon="17.6957374">
        <ele>26.0929</ele>
        <time>2012-03-25T13:50:42Z</time>
      </trkpt>
      <trkpt lat="59.9581239" lon="17.6948236">
        <ele>26.0929</ele>
        <time>2012-03-25T13:50:50Z</time>
      </trkpt>
      <trkpt lat="59.9577679" lon="17.6938102">
        <ele>24.651</ele>
        <time>2012-03-25T13:50:59Z</time>
      </trkpt>
      <trkpt lat="59.9573523" lon="17.6926257">
        <ele>24.651</ele>
        <time>2012-03-25T13:51:10Z</time>
      </trkpt>
      <trkpt lat="59.9570064" lon="17.6916171">
        <ele>24.651</ele>
        <time>2012-03-25T13:51:20Z</time>
      </trkpt>
      <trkpt lat="59.9568718" lon="17.6912317">
        <ele>25.6123</ele>
        <time>2012-03-25T13:51:24Z</time>
      </trkpt>
      <trkpt lat="59.9567606" lon="17.6910163">
        <ele>25.6123</ele>
        <time>2012-03-25T13:51:27Z</time>
      </trkpt>
      <trkpt lat="59.9565943" lon="17.6908361">
        <ele>25.6123</ele>
        <time>2012-03-25T13:51:31Z</time>
      </trkpt>
      <trkpt lat="59.9565607" lon="17.6907542">
        <ele>25.6123</ele>
        <time>2012-03-25T13:51:32Z</time>
      </trkpt>
      <trkpt lat="59.9563582" lon="17.6901478">
        <ele>26.0929</ele>
        <time>2012-03-25T13:51:39Z</time>
      </trkpt>
      <trkpt lat="59.9561813" lon="17.6893012">
        <ele>26.0929</ele>
        <time>2012-03-25T13:51:47Z</time>
      </trkpt>
      <trkpt lat="59.956021" lon="17.6883369">
        <ele>26.0929</ele>
        <time>2012-03-25T13:51:55Z</time>
      </trkpt>
      <trkpt lat="59.9558448" lon="17.6871948">
        <ele>26.5736</ele>
        <time>2012-03-25T13:52:04Z</time>
      </trkpt>
      <trkpt lat="59.9556734" lon="17.6860331">
        <ele>26.5736</ele>
        <time>2012-03-25T13:52:13Z</time>
      </trkpt>
      <trkpt lat="59.955519" lon="17.6849457">
        <ele>26.5736</ele>
        <time>2012-03-25T13:52:22Z</time>
      </trkpt>
      <trkpt lat="59.9553345" lon="17.6839013">
        <ele>26.0929</ele>
        <time>2012-03-25T13:52:31Z</time>
      </trkpt>
      <trkpt lat="59.9550745" lon="17.6828228">
        <ele>26.0929</ele>
        <time>2012-03-25T13:52:40Z</time>
      </trkpt>
      <trkpt lat="59.9548557" lon="17.6821292">
        <ele>25.6123</ele>
        <time>2012-03-25T13:52:46Z</time>
      </trkpt>
      <trkpt lat="59.9546512" lon="17.6817734">
        <ele>26.0929</ele>
        <time>2012-03-25T13:52:50Z</time>
      </trkpt>
      <trkpt lat="59.9546093" lon="17.6816693">
        <ele>26.0929</ele>
        <time>2012-03-25T13:52:51Z</time>
      </trkpt>
      <trkpt lat="59.9542657" lon="17.6806061">
        <ele>26.0929</ele>
        <time>2012-03-25T13:53:00Z</time>
      </trkpt>
      <trkpt lat="59.9538802" lon="17.6794865">
        <ele>27.0543</ele>
        <time>2012-03-25T13:53:10Z</time>
      </trkpt>
      <trkpt lat="59.9535498" lon="17.6785068">
        <ele>27.5349</ele>
        <time>2012-03-25T13:53:19Z</time>
      </trkpt>
      <trkpt lat="59.953334" lon="17.6778511">
        <ele>28.0155</ele>
        <time>2012-03-25T13:53:25Z</time>
      </trkpt>
      <trkpt lat="59.9528927" lon="17.6766969">
        <ele>27.5349</ele>
        <time>2012-03-25T13:53:36Z</time>
      </trkpt>
      <trkpt lat="59.9526538" lon="17.6760753">
        <ele>27.5349</ele>
        <time>2012-03-25T13:53:42Z</time>
      </trkpt>
      <trkpt lat="59.9524006" lon="17.6754303">
        <ele>28.4962</ele>
        <time>2012-03-25T13:53:49Z</time>
      </trkpt>
      <trkpt lat="59.9522916" lon="17.6751036">
        <ele>28.9769</ele>
        <time>2012-03-25T13:53:53Z</time>
      </trkpt>
      <trkpt lat="59.9521767" lon="17.6744326">
        <ele>27.0543</ele>
        <time>2012-03-25T13:53:59Z</time>
      </trkpt>
      <trkpt lat="59.9519809" lon="17.6734261">
        <ele>26.0929</ele>
        <time>2012-03-25T13:54:07Z</time>
      </trkpt>
      <trkpt lat="59.951838" lon="17.672311">
        <ele>25.1317</ele>
        <time>2012-03-25T13:54:15Z</time>
      </trkpt>
      <trkpt lat="59.9518027" lon="17.6715856">
        <ele>24.651</ele>
        <time>2012-03-25T13:54:20Z</time>
      </trkpt>
      <trkpt lat="59.9517324" lon="17.6710159">
        <ele>23.209</ele>
        <time>2012-03-25T13:54:24Z</time>
      </trkpt>
      <trkpt lat="59.9517266" lon="17.6705149">
        <ele>22.2476</ele>
        <time>2012-03-25T13:54:27Z</time>
      </trkpt>
      <trkpt lat="59.9518047" lon="17.6692612">
        <ele>21.767</ele>
        <time>2012-03-25T13:54:35Z</time>
      </trkpt>
      <trkpt lat="59.9518156" lon="17.6689859">
        <ele>21.767</ele>
        <time>2012-03-25T13:54:37Z</time>
      </trkpt>
      <trkpt lat="59.9517491" lon="17.6684445">
        <ele>21.2864</ele>
        <time>2012-03-25T13:54:41Z</time>
      </trkpt>
      <trkpt lat="59.9515471" lon="17.6680438">
        <ele>21.2864</ele>
        <time>2012-03-25T13:54:45Z</time>
      </trkpt>
      <trkpt lat="59.951398" lon="17.6680412">
        <ele>21.767</ele>
        <time>2012-03-25T13:54:47Z</time>
      </trkpt>
      <trkpt lat="59.9506019" lon="17.6682435">
        <ele>23.6896</ele>
        <time>2012-03-25T13:54:58Z</time>
      </trkpt>
      <trkpt lat="59.9500865" lon="17.6682021">
        <ele>24.651</ele>
        <time>2012-03-25T13:55:05Z</time>
      </trkpt>
      <trkpt lat="59.9495072" lon="17.6679644">
        <ele>25.1317</ele>
        <time>2012-03-25T13:55:13Z</time>
      </trkpt>
      <trkpt lat="59.9488517" lon="17.6676165">
        <ele>25.6123</ele>
        <time>2012-03-25T13:55:22Z</time>
      </trkpt>
      <trkpt lat="59.948703" lon="17.66754">
        <ele>25.6123</ele>
        <time>2012-03-25T13:55:24Z</time>
      </trkpt>
      <trkpt lat="59.9481804" lon="17.6672043">
        <ele>26.0929</ele>
        <time>2012-03-25T13:55:31Z</time>
      </trkpt>
      <trkpt lat="59.9471158" lon="17.6666652">
        <ele>27.5349</ele>
        <time>2012-03-25T13:55:45Z</time>
      </trkpt>
      <trkpt lat="59.9465807" lon="17.6664984">
        <ele>28.0155</ele>
        <time>2012-03-25T13:55:52Z</time>
      </trkpt>
      <trkpt lat="59.9462796" lon="17.6663681">
        <ele>28.0155</ele>
        <time>2012-03-25T13:55:56Z</time>
      </trkpt>
      <trkpt lat="59.9458258" lon="17.6661512">
        <ele>28.4962</ele>
        <time>2012-03-25T13:56:02Z</time>
      </trkpt>
      <trkpt lat="59.9450487" lon="17.6658534">
        <ele>28.9769</ele>
        <time>2012-03-25T13:56:12Z</time>
      </trkpt>
      <trkpt lat="59.9441963" lon="17.6655166">
        <ele>29.9381</ele>
        <time>2012-03-25T13:56:23Z</time>
      </trkpt>
      <trkpt lat="59.9435907" lon="17.6651722">
        <ele>30.8995</ele>
        <time>2012-03-25T13:56:31Z</time>
      </trkpt>
      <trkpt lat="59.9429682" lon="17.6646526">
        <ele>31.8607</ele>
        <time>2012-03-25T13:56:40Z</time>
      </trkpt>
      <trkpt lat="59.9424714" lon="17.6641002">
        <ele>32.8223</ele>
        <time>2012-03-25T13:56:48Z</time>
      </trkpt>
      <trkpt lat="59.9419727" lon="17.6633887">
        <ele>33.3029</ele>
        <time>2012-03-25T13:56:57Z</time>
      </trkpt>
      <trkpt lat="59.941513" lon="17.6625987">
        <ele>33.3029</ele>
        <time>2012-03-25T13:57:06Z</time>
      </trkpt>
      <trkpt lat="59.941139" lon="17.6622186">
        <ele>33.3029</ele>
        <time>2012-03-25T13:57:12Z</time>
      </trkpt>
      <trkpt lat="59.9407428" lon="17.662077">
        <ele>33.3029</ele>
        <time>2012-03-25T13:57:18Z</time>
      </trkpt>
      <trkpt lat="59.9404933" lon="17.6618474">
        <ele>32.3416</ele>
        <time>2012-03-25T13:57:22Z</time>
      </trkpt>
      <trkpt lat="59.9403972" lon="17.66144">
        <ele>31.8607</ele>
        <time>2012-03-25T13:57:25Z</time>
      </trkpt>
      <trkpt lat="59.940436" lon="17.6608312">
        <ele>31.3801</ele>
        <time>2012-03-25T13:57:29Z</time>
      </trkpt>
      <trkpt lat="59.9405313" lon="17.6603112">
        <ele>31.8607</ele>
        <time>2012-03-25T13:57:33Z</time>
      </trkpt>
      <trkpt lat="59.9404774" lon="17.6600087">
        <ele>32.3416</ele>
        <time>2012-03-25T13:57:36Z</time>
      </trkpt>
      <trkpt lat="59.9403268" lon="17.6593">
        <ele>31.8607</ele>
        <time>2012-03-25T13:57:42Z</time>
      </trkpt>
      <trkpt lat="59.9401496" lon="17.6583969">
        <ele>32.3416</ele>
        <time>2012-03-25T13:57:49Z</time>
      </trkpt>
      <trkpt lat="59.9399178" lon="17.6573118">
        <ele>33.7834</ele>
        <time>2012-03-25T13:57:58Z</time>
      </trkpt>
      <trkpt lat="59.9396819" lon="17.6561258">
        <ele>35.7061</ele>
        <time>2012-03-25T13:58:08Z</time>
      </trkpt>
      <trkpt lat="59.9394357" lon="17.6549271">
        <ele>36.1868</ele>
        <time>2012-03-25T13:58:18Z</time>
      </trkpt>
      <trkpt lat="59.9392346" lon="17.653946">
        <ele>35.7061</ele>
        <time>2012-03-25T13:58:26Z</time>
      </trkpt>
      <trkpt lat="59.9389369" lon="17.6526959">
        <ele>34.2642</ele>
        <time>2012-03-25T13:58:36Z</time>
      </trkpt>
      <trkpt lat="59.938581" lon="17.6514568">
        <ele>32.8223</ele>
        <time>2012-03-25T13:58:46Z</time>
      </trkpt>
      <trkpt lat="59.9384608" lon="17.6510988">
        <ele>32.3416</ele>
        <time>2012-03-25T13:58:49Z</time>
      </trkpt>
      <trkpt lat="59.938098" lon="17.6502192">
        <ele>30.8995</ele>
        <time>2012-03-25T13:58:57Z</time>
      </trkpt>
      <trkpt lat="59.9378406" lon="17.6495861">
        <ele>31.3801</ele>
        <time>2012-03-25T13:59:03Z</time>
      </trkpt>
      <trkpt lat="59.9377734" lon="17.6493703">
        <ele>31.3801</ele>
        <time>2012-03-25T13:59:05Z</time>
      </trkpt>
      <trkpt lat="59.9374838" lon="17.6485974">
        <ele>32.3416</ele>
        <time>2012-03-25T13:59:13Z</time>
      </trkpt>
      <trkpt lat="59.9374001" lon="17.6484191">
        <ele>32.3416</ele>
        <time>2012-03-25T13:59:15Z</time>
      </trkpt>
      <trkpt lat="59.9371431" lon="17.648013">
        <ele>32.8223</ele>
        <time>2012-03-25T13:59:20Z</time>
      </trkpt>
      <trkpt lat="59.9367561" lon="17.6475239">
        <ele>31.8607</ele>
        <time>2012-03-25T13:59:27Z</time>
      </trkpt>
      <trkpt lat="59.9362986" lon="17.6469227">
        <ele>31.3801</ele>
        <time>2012-03-25T13:59:35Z</time>
      </trkpt>
      <trkpt lat="59.9357724" lon="17.6462431">
        <ele>31.8607</ele>
        <time>2012-03-25T13:59:45Z</time>
      </trkpt>
      <trkpt lat="59.9353674" lon="17.6457701">
        <ele>31.3801</ele>
        <time>2012-03-25T13:59:52Z</time>
      </trkpt>
      <trkpt lat="59.9350704" lon="17.6454127">
        <ele>30.8995</ele>
        <time>2012-03-25T13:59:57Z</time>
      </trkpt>
      <trkpt lat="59.9345814" lon="17.6448222">
        <ele>30.4188</ele>
        <time>2012-03-25T14:00:05Z</time>
      </trkpt>
      <trkpt lat="59.9343991" lon="17.6445348">
        <ele>29.4575</ele>
        <time>2012-03-25T14:00:08Z</time>
      </trkpt>
      <trkpt lat="59.9338039" lon="17.6437939">
        <ele>28.4962</ele>
        <time>2012-03-25T14:00:16Z</time>
      </trkpt>
      <trkpt lat="59.9333321" lon="17.6432329">
        <ele>26.5736</ele>
        <time>2012-03-25T14:00:22Z</time>
      </trkpt>
      <trkpt lat="59.9329175" lon="17.6426284">
        <ele>24.1703</ele>
        <time>2012-03-25T14:00:27Z</time>
      </trkpt>
      <trkpt lat="59.9327617" lon="17.6423715">
        <ele>23.209</ele>
        <time>2012-03-25T14:00:29Z</time>
      </trkpt>
      <trkpt lat="59.9323345" lon="17.6418778">
        <ele>22.2476</ele>
        <time>2012-03-25T14:00:34Z</time>
      </trkpt>
      <trkpt lat="59.9318296" lon="17.6414544">
        <ele>23.209</ele>
        <time>2012-03-25T14:00:40Z</time>
      </trkpt>
      <trkpt lat="59.9311396" lon="17.6409609">
        <ele>22.2476</ele>
        <time>2012-03-25T14:00:48Z</time>
      </trkpt>
      <trkpt lat="59.930944" lon="17.640835">
        <ele>22.2476</ele>
        <time>2012-03-25T14:00:50Z</time>
      </trkpt>
      <trkpt lat="59.9305451" lon="17.6408015">
        <ele>21.767</ele>
        <time>2012-03-25T14:00:54Z</time>
      </trkpt>
      <trkpt lat="59.9300298" lon="17.6408097">
        <ele>21.2864</ele>
        <time>2012-03-25T14:00:59Z</time>
      </trkpt>
      <trkpt lat="59.9294465" lon="17.6408858">
        <ele>21.2864</ele>
        <time>2012-03-25T14:01:05Z</time>
      </trkpt>
      <trkpt lat="59.9288119" lon="17.6409477">
        <ele>21.767</ele>
        <time>2012-03-25T14:01:12Z</time>
      </trkpt>
      <trkpt lat="59.9279493" lon="17.6410907">
        <ele>22.2476</ele>
        <time>2012-03-25T14:01:22Z</time>
      </trkpt>
      <trkpt lat="59.9272563" lon="17.6411526">
        <ele>22.7283</ele>
        <time>2012-03-25T14:01:30Z</time>
      </trkpt>
      <trkpt lat="59.9264231" lon="17.641239">
        <ele>23.209</ele>
        <time>2012-03-25T14:01:40Z</time>
      </trkpt>
      <trkpt lat="59.9255075" lon="17.6413624">
        <ele>24.1703</ele>
        <time>2012-03-25T14:01:51Z</time>
      </trkpt>
      <trkpt lat="59.9248848" lon="17.6413923">
        <ele>25.1317</ele>
        <time>2012-03-25T14:01:59Z</time>
      </trkpt>
      <trkpt lat="59.9243" lon="17.6414949">
        <ele>26.0929</ele>
        <time>2012-03-25T14:02:07Z</time>
      </trkpt>
      <trkpt lat="59.9235998" lon="17.6415598">
        <ele>27.5349</ele>
        <time>2012-03-25T14:02:17Z</time>
      </trkpt>
      <trkpt lat="59.9229872" lon="17.6416416">
        <ele>29.4575</ele>
        <time>2012-03-25T14:02:27Z</time>
      </trkpt>
      <trkpt lat="59.9223194" lon="17.6417284">
        <ele>29.4575</ele>
        <time>2012-03-25T14:02:38Z</time>
      </trkpt>
      <trkpt lat="59.9216662" lon="17.6418196">
        <ele>29.4575</ele>
        <time>2012-03-25T14:02:48Z</time>
      </trkpt>
      <trkpt lat="59.9212023" lon="17.6418876">
        <ele>28.4962</ele>
        <time>2012-03-25T14:02:55Z</time>
      </trkpt>
      <trkpt lat="59.9206079" lon="17.6419202">
        <ele>28.4962</ele>
        <time>2012-03-25T14:03:03Z</time>
      </trkpt>
      <trkpt lat="59.9200046" lon="17.6419615">
        <ele>28.4962</ele>
        <time>2012-03-25T14:03:11Z</time>
      </trkpt>
      <trkpt lat="59.9195523" lon="17.6420388">
        <ele>28.4962</ele>
        <time>2012-03-25T14:03:17Z</time>
      </trkpt>
      <trkpt lat="59.9188845" lon="17.6421165">
        <ele>28.9769</ele>
        <time>2012-03-25T14:03:26Z</time>
      </trkpt>
      <trkpt lat="59.9181108" lon="17.6422004">
        <ele>27.0543</ele>
        <time>2012-03-25T14:03:36Z</time>
      </trkpt>
      <trkpt lat="59.9175027" lon="17.6422384">
        <ele>25.6123</ele>
        <time>2012-03-25T14:03:43Z</time>
      </trkpt>
      <trkpt lat="59.917242" lon="17.6422362">
        <ele>25.1317</ele>
        <time>2012-03-25T14:03:46Z</time>
      </trkpt>
      <trkpt lat="59.9167541" lon="17.6423387">
        <ele>27.0543</ele>
        <time>2012-03-25T14:03:52Z</time>
      </trkpt>
      <trkpt lat="59.9161694" lon="17.6424087">
        <ele>28.0155</ele>
        <time>2012-03-25T14:04:00Z</time>
      </trkpt>
      <trkpt lat="59.915556" lon="17.6424396">
        <ele>27.0543</ele>
        <time>2012-03-25T14:04:08Z</time>
      </trkpt>
      <trkpt lat="59.9153991" lon="17.6424754">
        <ele>27.0543</ele>
        <time>2012-03-25T14:04:10Z</time>
      </trkpt>
      <trkpt lat="59.9151867" lon="17.6426077">
        <ele>27.5349</ele>
        <time>2012-03-25T14:04:13Z</time>
      </trkpt>
      <trkpt lat="59.9149401" lon="17.6427015">
        <ele>28.0155</ele>
        <time>2012-03-25T14:04:17Z</time>
      </trkpt>
      <trkpt lat="59.9143205" lon="17.6428133">
        <ele>28.9769</ele>
        <time>2012-03-25T14:04:27Z</time>
      </trkpt>
      <trkpt lat="59.9137496" lon="17.6429142">
        <ele>30.4188</ele>
        <time>2012-03-25T14:04:36Z</time>
      </trkpt>
      <trkpt lat="59.9132222" lon="17.6430298">
        <ele>31.3801</ele>
        <time>2012-03-25T14:04:44Z</time>
      </trkpt>
      <trkpt lat="59.9128981" lon="17.6430942">
        <ele>31.3801</ele>
        <time>2012-03-25T14:04:49Z</time>
      </trkpt>
      <trkpt lat="59.9128332" lon="17.6431065">
        <ele>30.8995</ele>
        <time>2012-03-25T14:04:50Z</time>
      </trkpt>
      <trkpt lat="59.9126229" lon="17.6430636">
        <ele>29.4575</ele>
        <time>2012-03-25T14:04:53Z</time>
      </trkpt>
      <trkpt lat="59.9122336" lon="17.6430764">
        <ele>29.9381</ele>
        <time>2012-03-25T14:04:58Z</time>
      </trkpt>
      <trkpt lat="59.9117548" lon="17.643195">
        <ele>32.3416</ele>
        <time>2012-03-25T14:05:05Z</time>
      </trkpt>
      <trkpt lat="59.9110866" lon="17.6433257">
        <ele>32.8223</ele>
        <time>2012-03-25T14:05:15Z</time>
      </trkpt>
      <trkpt lat="59.9106401" lon="17.6434107">
        <ele>32.3416</ele>
        <time>2012-03-25T14:05:21Z</time>
      </trkpt>
      <trkpt lat="59.910421" lon="17.6435106">
        <ele>32.8223</ele>
        <time>2012-03-25T14:05:24Z</time>
      </trkpt>
      <trkpt lat="59.9101237" lon="17.6435639">
        <ele>32.3416</ele>
        <time>2012-03-25T14:05:28Z</time>
      </trkpt>
      <trkpt lat="59.9098805" lon="17.6434984">
        <ele>30.8995</ele>
        <time>2012-03-25T14:05:31Z</time>
      </trkpt>
      <trkpt lat="59.9092987" lon="17.6435761">
        <ele>30.8995</ele>
        <time>2012-03-25T14:05:38Z</time>
      </trkpt>
      <trkpt lat="59.9085687" lon="17.6436489">
        <ele>30.8995</ele>
        <time>2012-03-25T14:05:47Z</time>
      </trkpt>
      <trkpt lat="59.9079304" lon="17.643582">
        <ele>30.4188</ele>
        <time>2012-03-25T14:05:55Z</time>
      </trkpt>
      <trkpt lat="59.9071561" lon="17.643439">
        <ele>28.9769</ele>
        <time>2012-03-25T14:06:04Z</time>
      </trkpt>
      <trkpt lat="59.906366" lon="17.6432194">
        <ele>27.0543</ele>
        <time>2012-03-25T14:06:13Z</time>
      </trkpt>
      <trkpt lat="59.9055282" lon="17.642878">
        <ele>25.6123</ele>
        <time>2012-03-25T14:06:22Z</time>
      </trkpt>
      <trkpt lat="59.9050947" lon="17.6427421">
        <ele>25.6123</ele>
        <time>2012-03-25T14:06:27Z</time>
      </trkpt>
      <trkpt lat="59.9046199" lon="17.6424522">
        <ele>24.651</ele>
        <time>2012-03-25T14:06:33Z</time>
      </trkpt>
      <trkpt lat="59.904281" lon="17.6422415">
        <ele>24.651</ele>
        <time>2012-03-25T14:06:38Z</time>
      </trkpt>
      <trkpt lat="59.9040159" lon="17.6420931">
        <ele>24.651</ele>
        <time>2012-03-25T14:06:43Z</time>
      </trkpt>
      <trkpt lat="59.9034154" lon="17.641876">
        <ele>24.651</ele>
        <time>2012-03-25T14:07:45Z</time>
      </trkpt>
      <trkpt lat="59.9033657" lon="17.6418497">
        <ele>24.651</ele>
        <time>2012-03-25T14:07:46Z</time>
      </trkpt>
      <trkpt lat="59.9030552" lon="17.6416779">
        <ele>25.6123</ele>
        <time>2012-03-25T14:07:50Z</time>
      </trkpt>
      <trkpt lat="59.9024802" lon="17.6413473">
        <ele>27.5349</ele>
        <time>2012-03-25T14:07:58Z</time>
      </trkpt>
      <trkpt lat="59.9017686" lon="17.6408029">
        <ele>28.9769</ele>
        <time>2012-03-25T14:08:08Z</time>
      </trkpt>
      <trkpt lat="59.901103" lon="17.6401749">
        <ele>29.9381</ele>
        <time>2012-03-25T14:08:18Z</time>
      </trkpt>
      <trkpt lat="59.9004445" lon="17.6394976">
        <ele>30.4188</ele>
        <time>2012-03-25T14:08:28Z</time>
      </trkpt>
      <trkpt lat="59.8999041" lon="17.6389542">
        <ele>30.4188</ele>
        <time>2012-03-25T14:08:36Z</time>
      </trkpt>
      <trkpt lat="59.8993351" lon="17.6383818">
        <ele>30.8995</ele>
        <time>2012-03-25T14:08:45Z</time>
      </trkpt>
      <trkpt lat="59.8989304" lon="17.6380049">
        <ele>32.3416</ele>
        <time>2012-03-25T14:08:52Z</time>
      </trkpt>
      <trkpt lat="59.8983823" lon="17.6375004">
        <ele>32.3416</ele>
        <time>2012-03-25T14:09:02Z</time>
      </trkpt>
      <trkpt lat="59.897874" lon="17.6370826">
        <ele>32.3416</ele>
        <time>2012-03-25T14:09:11Z</time>
      </trkpt>
      <trkpt lat="59.8978178" lon="17.6370404">
        <ele>32.3416</ele>
        <time>2012-03-25T14:09:12Z</time>
      </trkpt>
      <trkpt lat="59.8976646" lon="17.6369718">
        <ele>31.8607</ele>
        <time>2012-03-25T14:09:15Z</time>
      </trkpt>
      <trkpt lat="59.897421" lon="17.6368023">
        <ele>30.8995</ele>
        <time>2012-03-25T14:09:20Z</time>
      </trkpt>
      <trkpt lat="59.8972385" lon="17.6368408">
        <ele>30.8995</ele>
        <time>2012-03-25T14:09:24Z</time>
      </trkpt>
      <trkpt lat="59.8969978" lon="17.6367723">
        <ele>31.8607</ele>
        <time>2012-03-25T14:09:29Z</time>
      </trkpt>
      <trkpt lat="59.8966263" lon="17.6365573">
        <ele>32.8223</ele>
        <time>2012-03-25T14:09:36Z</time>
      </trkpt>
      <trkpt lat="59.8960286" lon="17.6363427">
        <ele>32.8223</ele>
        <time>2012-03-25T14:09:46Z</time>
      </trkpt>
      <trkpt lat="59.8955567" lon="17.636407">
        <ele>32.8223</ele>
        <time>2012-03-25T14:09:53Z</time>
      </trkpt>
      <trkpt lat="59.8950494" lon="17.6367195">
        <ele>32.3416</ele>
        <time>2012-03-25T14:10:00Z</time>
      </trkpt>
      <trkpt lat="59.8943916" lon="17.6371424">
        <ele>33.3029</ele>
        <time>2012-03-25T14:10:09Z</time>
      </trkpt>
      <trkpt lat="59.8937649" lon="17.6375774">
        <ele>35.2255</ele>
        <time>2012-03-25T14:10:18Z</time>
      </trkpt>
      <trkpt lat="59.8931553" lon="17.6379742">
        <ele>32.8223</ele>
        <time>2012-03-25T14:10:26Z</time>
      </trkpt>
      <trkpt lat="59.8928266" lon="17.6381156">
        <ele>30.8995</ele>
        <time>2012-03-25T14:10:30Z</time>
      </trkpt>
      <trkpt lat="59.8921889" lon="17.6381874">
        <ele>28.0155</ele>
        <time>2012-03-25T14:10:37Z</time>
      </trkpt>
      <trkpt lat="59.8918362" lon="17.6383727">
        <ele>27.0543</ele>
        <time>2012-03-25T14:10:41Z</time>
      </trkpt>
      <trkpt lat="59.8911323" lon="17.6384005">
        <ele>26.0929</ele>
        <time>2012-03-25T14:10:49Z</time>
      </trkpt>
      <trkpt lat="59.8904764" lon="17.6382833">
        <ele>25.1317</ele>
        <time>2012-03-25T14:10:56Z</time>
      </trkpt>
      <trkpt lat="59.8896933" lon="17.6380231">
        <ele>24.1703</ele>
        <time>2012-03-25T14:11:05Z</time>
      </trkpt>
      <trkpt lat="59.8891647" lon="17.6378252">
        <ele>23.6896</ele>
        <time>2012-03-25T14:11:12Z</time>
      </trkpt>
      <trkpt lat="59.888753" lon="17.6377768">
        <ele>23.6896</ele>
        <time>2012-03-25T14:11:18Z</time>
      </trkpt>
      <trkpt lat="59.8886248" lon="17.6377627">
        <ele>23.6896</ele>
        <time>2012-03-25T14:11:20Z</time>
      </trkpt>
      <trkpt lat="59.8883782" lon="17.6377872">
        <ele>23.6896</ele>
        <time>2012-03-25T14:11:24Z</time>
      </trkpt>
      <trkpt lat="59.8879091" lon="17.6377929">
        <ele>24.1703</ele>
        <time>2012-03-25T14:11:31Z</time>
      </trkpt>
      <trkpt lat="59.8873204" lon="17.637588">
        <ele>23.6896</ele>
        <time>2012-03-25T14:11:39Z</time>
      </trkpt>
      <trkpt lat="59.8866925" lon="17.6373094">
        <ele>22.7283</ele>
        <time>2012-03-25T14:11:47Z</time>
      </trkpt>
      <trkpt lat="59.8860577" lon="17.6369661">
        <ele>22.2476</ele>
        <time>2012-03-25T14:11:55Z</time>
      </trkpt>
      <trkpt lat="59.8853634" lon="17.6363649">
        <ele>21.2864</ele>
        <time>2012-03-25T14:12:04Z</time>
      </trkpt>
      <trkpt lat="59.8847857" lon="17.6358428">
        <ele>20.8057</ele>
        <time>2012-03-25T14:12:12Z</time>
      </trkpt>
      <trkpt lat="59.8843148" lon="17.6354875">
        <ele>20.325</ele>
        <time>2012-03-25T14:12:19Z</time>
      </trkpt>
      <trkpt lat="59.8842427" lon="17.6354457">
        <ele>19.8444</ele>
        <time>2012-03-25T14:12:20Z</time>
      </trkpt>
      <trkpt lat="59.8836624" lon="17.6353716">
        <ele>18.8831</ele>
        <time>2012-03-25T14:12:27Z</time>
      </trkpt>
      <trkpt lat="59.8835134" lon="17.6354642">
        <ele>18.4023</ele>
        <time>2012-03-25T14:12:29Z</time>
      </trkpt>
      <trkpt lat="59.8831276" lon="17.6354478">
        <ele>17.9218</ele>
        <time>2012-03-25T14:12:34Z</time>
      </trkpt>
      <trkpt lat="59.8827168" lon="17.6354881">
        <ele>16.9604</ele>
        <time>2012-03-25T14:12:39Z</time>
      </trkpt>
      <trkpt lat="59.8820792" lon="17.6357065">
        <ele>16.9604</ele>
        <time>2012-03-25T14:12:47Z</time>
      </trkpt>
      <trkpt lat="59.8816775" lon="17.6357973">
        <ele>17.4412</ele>
        <time>2012-03-25T14:12:52Z</time>
      </trkpt>
      <trkpt lat="59.8813561" lon="17.6356042">
        <ele>17.4412</ele>
        <time>2012-03-25T14:12:56Z</time>
      </trkpt>
      <trkpt lat="59.8809255" lon="17.6355656">
        <ele>16.9604</ele>
        <time>2012-03-25T14:13:01Z</time>
      </trkpt>
      <trkpt lat="59.8799346" lon="17.6356394">
        <ele>16.4797</ele>
        <time>2012-03-25T14:13:12Z</time>
      </trkpt>
      <trkpt lat="59.8790067" lon="17.6356891">
        <ele>15.5184</ele>
        <time>2012-03-25T14:13:22Z</time>
      </trkpt>
      <trkpt lat="59.8781747" lon="17.6357316">
        <ele>15.0377</ele>
        <time>2012-03-25T14:13:31Z</time>
      </trkpt>
      <trkpt lat="59.8773617" lon="17.6357504">
        <ele>15.5184</ele>
        <time>2012-03-25T14:13:40Z</time>
      </trkpt>
      <trkpt lat="59.876325" lon="17.6358611">
        <ele>15.0377</ele>
        <time>2012-03-25T14:13:52Z</time>
      </trkpt>
      <trkpt lat="59.8757474" lon="17.6359938">
        <ele>14.557</ele>
        <time>2012-03-25T14:13:59Z</time>
      </trkpt>
      <trkpt lat="59.8751196" lon="17.636317">
        <ele>14.557</ele>
        <time>2012-03-25T14:14:07Z</time>
      </trkpt>
      <trkpt lat="59.874623" lon="17.6367241">
        <ele>14.557</ele>
        <time>2012-03-25T14:14:14Z</time>
      </trkpt>
      <trkpt lat="59.8744963" lon="17.6368781">
        <ele>14.0764</ele>
        <time>2012-03-25T14:14:16Z</time>
      </trkpt>
      <trkpt lat="59.8740809" lon="17.6375587">
        <ele>13.5958</ele>
        <time>2012-03-25T14:14:23Z</time>
      </trkpt>
      <trkpt lat="59.8737045" lon="17.6380922">
        <ele>13.5958</ele>
        <time>2012-03-25T14:14:30Z</time>
      </trkpt>
      <trkpt lat="59.8736247" lon="17.6382113">
        <ele>13.5958</ele>
        <time>2012-03-25T14:14:32Z</time>
      </trkpt>
      <trkpt lat="59.8735361" lon="17.638309">
        <ele>13.5958</ele>
        <time>2012-03-25T14:14:35Z</time>
      </trkpt>
      <trkpt lat="59.8734589" lon="17.6383784">
        <ele>13.5958</ele>
        <time>2012-03-25T14:14:41Z</time>
      </trkpt>
      <trkpt lat="59.8733484" lon="17.6385022">
        <ele>13.5958</ele>
        <time>2012-03-25T14:14:45Z</time>
      </trkpt>
      <trkpt lat="59.8732754" lon="17.6385777">
        <ele>13.5958</ele>
        <time>2012-03-25T14:14:47Z</time>
      </trkpt>
      <trkpt lat="59.8730947" lon="17.6385558">
        <ele>13.5958</ele>
        <time>2012-03-25T14:14:51Z</time>
      </trkpt>
      <trkpt lat="59.8730434" lon="17.6385898">
        <ele>13.5958</ele>
        <time>2012-03-25T14:14:52Z</time>
      </trkpt>
      <trkpt lat="59.8726213" lon="17.6388713">
        <ele>14.0764</ele>
        <time>2012-03-25T14:14:59Z</time>
      </trkpt>
      <trkpt lat="59.8718738" lon="17.6392596">
        <ele>14.557</ele>
        <time>2012-03-25T14:15:09Z</time>
      </trkpt>
      <trkpt lat="59.8717207" lon="17.6393182">
        <ele>14.557</ele>
        <time>2012-03-25T14:15:11Z</time>
      </trkpt>
      <trkpt lat="59.8711796" lon="17.6392842">
        <ele>14.0764</ele>
        <time>2012-03-25T14:15:18Z</time>
      </trkpt>
      <trkpt lat="59.8707272" lon="17.6393068">
        <ele>14.0764</ele>
        <time>2012-03-25T14:15:24Z</time>
      </trkpt>
      <trkpt lat="59.8700668" lon="17.6393752">
        <ele>15.999</ele>
        <time>2012-03-25T14:15:33Z</time>
      </trkpt>
      <trkpt lat="59.8693832" lon="17.6393803">
        <ele>16.9604</ele>
        <time>2012-03-25T14:15:43Z</time>
      </trkpt>
      <trkpt lat="59.8686627" lon="17.6393953">
        <ele>17.9218</ele>
        <time>2012-03-25T14:15:54Z</time>
      </trkpt>
      <trkpt lat="59.868329" lon="17.6394064">
        <ele>18.8831</ele>
        <time>2012-03-25T14:15:59Z</time>
      </trkpt>
      <trkpt lat="59.8677193" lon="17.6394315">
        <ele>18.8831</ele>
        <time>2012-03-25T14:16:08Z</time>
      </trkpt>
      <trkpt lat="59.8671143" lon="17.6394777">
        <ele>17.9218</ele>
        <time>2012-03-25T14:16:17Z</time>
      </trkpt>
      <trkpt lat="59.8667412" lon="17.6395836">
        <ele>17.9218</ele>
        <time>2012-03-25T14:16:23Z</time>
      </trkpt>
      <trkpt lat="59.866645" lon="17.6396297">
        <ele>17.9218</ele>
        <time>2012-03-25T14:16:25Z</time>
      </trkpt>
      <trkpt lat="59.8663591" lon="17.6398926">
        <ele>16.4797</ele>
        <time>2012-03-25T14:16:32Z</time>
      </trkpt>
      <trkpt lat="59.8662249" lon="17.6399024">
        <ele>16.9604</ele>
        <time>2012-03-25T14:16:36Z</time>
      </trkpt>
      <trkpt lat="59.8661705" lon="17.6397814">
        <ele>16.4797</ele>
        <time>2012-03-25T14:16:38Z</time>
      </trkpt>
      <trkpt lat="59.866012" lon="17.6391769">
        <ele>15.5184</ele>
        <time>2012-03-25T14:16:45Z</time>
      </trkpt>
      <trkpt lat="59.8657943" lon="17.638439">
        <ele>14.557</ele>
        <time>2012-03-25T14:16:53Z</time>
      </trkpt>
      <trkpt lat="59.8656129" lon="17.6374722">
        <ele>11.6732</ele>
        <time>2012-03-25T14:17:02Z</time>
      </trkpt>
      <trkpt lat="59.8655203" lon="17.6365407">
        <ele>10.7118</ele>
        <time>2012-03-25T14:17:09Z</time>
      </trkpt>
      <trkpt lat="59.8655078" lon="17.636397">
        <ele>10.2312</ele>
        <time>2012-03-25T14:17:10Z</time>
      </trkpt>
      <trkpt lat="59.8654816" lon="17.6357817">
        <ele>9.2699</ele>
        <time>2012-03-25T14:17:14Z</time>
      </trkpt>
      <trkpt lat="59.8655246" lon="17.6352973">
        <ele>10.2312</ele>
        <time>2012-03-25T14:17:18Z</time>
      </trkpt>
      <trkpt lat="59.8655317" lon="17.6348249">
        <ele>11.6732</ele>
        <time>2012-03-25T14:17:23Z</time>
      </trkpt>
      <trkpt lat="59.8655789" lon="17.6345551">
        <ele>12.6344</ele>
        <time>2012-03-25T14:17:28Z</time>
      </trkpt>
      <trkpt lat="59.8655301" lon="17.6345512">
        <ele>13.1151</ele>
        <time>2012-03-25T14:17:31Z</time>
      </trkpt>
      <trkpt lat="59.8653753" lon="17.6347458">
        <ele>13.5958</ele>
        <time>2012-03-25T14:17:37Z</time>
      </trkpt>
      <trkpt lat="59.8651106" lon="17.6350737">
        <ele>14.0764</ele>
        <time>2012-03-25T14:17:44Z</time>
      </trkpt>
      <trkpt lat="59.8648796" lon="17.6353804">
        <ele>13.5958</ele>
        <time>2012-03-25T14:17:49Z</time>
      </trkpt>
      <trkpt lat="59.8645599" lon="17.6360014">
        <ele>11.6732</ele>
        <time>2012-03-25T14:17:56Z</time>
      </trkpt>
      <trkpt lat="59.8643972" lon="17.6363325">
        <ele>10.2312</ele>
        <time>2012-03-25T14:18:00Z</time>
      </trkpt>
      <trkpt lat="59.8643741" lon="17.636377">
        <ele>9.75061</ele>
        <time>2012-03-25T14:18:01Z</time>
      </trkpt>
      <trkpt lat="59.8643393" lon="17.636521">
        <ele>9.75061</ele>
        <time>2012-03-25T14:18:04Z</time>
      </trkpt>
      <trkpt lat="59.8643761" lon="17.6368316">
        <ele>9.75061</ele>
        <time>2012-03-25T14:18:09Z</time>
      </trkpt>
      <trkpt lat="59.864465" lon="17.6371177">
        <ele>10.2312</ele>
        <time>2012-03-25T14:18:13Z</time>
      </trkpt>
      <trkpt lat="59.8644741" lon="17.6372975">
        <ele>11.1925</ele>
        <time>2012-03-25T14:18:16Z</time>
      </trkpt>
      <trkpt lat="59.864471" lon="17.6374176">
        <ele>11.6732</ele>
        <time>2012-03-25T14:18:18Z</time>
      </trkpt>
      <trkpt lat="59.8645862" lon="17.6377673">
        <ele>11.6732</ele>
        <time>2012-03-25T14:18:24Z</time>
      </trkpt>
      <trkpt lat="59.8647199" lon="17.6381061">
        <ele>12.1538</ele>
        <time>2012-03-25T14:18:29Z</time>
      </trkpt>
      <trkpt lat="59.8648946" lon="17.638538">
        <ele>12.6344</ele>
        <time>2012-03-25T14:18:35Z</time>
      </trkpt>
      <trkpt lat="59.8650231" lon="17.6388222">
        <ele>12.1538</ele>
        <time>2012-03-25T14:18:39Z</time>
      </trkpt>
      <trkpt lat="59.8650536" lon="17.6388918">
        <ele>12.6344</ele>
        <time>2012-03-25T14:18:40Z</time>
      </trkpt>
      <trkpt lat="59.8651847" lon="17.6391924">
        <ele>10.7118</ele>
        <time>2012-03-25T14:18:45Z</time>
      </trkpt>
      <trkpt lat="59.8652726" lon="17.6393664">
        <ele>10.7118</ele>
        <time>2012-03-25T14:18:48Z</time>
      </trkpt>
      <trkpt lat="59.8655048" lon="17.6397929">
        <ele>11.1925</ele>
        <time>2012-03-25T14:18:55Z</time>
      </trkpt>
      <trkpt lat="59.865759" lon="17.6403384">
        <ele>11.1925</ele>
        <time>2012-03-25T14:19:03Z</time>
      </trkpt>
      <trkpt lat="59.8657864" lon="17.6404016">
        <ele>11.6732</ele>
        <time>2012-03-25T14:19:04Z</time>
      </trkpt>
      <trkpt lat="59.8659209" lon="17.640538">
        <ele>13.1151</ele>
        <time>2012-03-25T14:19:09Z</time>
      </trkpt>
      <trkpt lat="59.8659615" lon="17.6405563">
        <ele>14.0764</ele>
        <time>2012-03-25T14:19:14Z</time>
      </trkpt>
      <trkpt lat="59.8659932" lon="17.6405603">
        <ele>19.8444</ele>
        <time>2012-03-25T14:19:27Z</time>
      </trkpt>
      <trkpt lat="59.866044" lon="17.6406651">
        <ele>21.767</ele>
        <time>2012-03-25T14:19:37Z</time>
      </trkpt>
      <trkpt lat="59.8661095" lon="17.640834">
        <ele>20.8057</ele>
        <time>2012-03-25T14:19:40Z</time>
      </trkpt>
      <trkpt lat="59.8660689" lon="17.6411553">
        <ele>18.8831</ele>
        <time>2012-03-25T14:19:44Z</time>
      </trkpt>
      <trkpt lat="59.8659975" lon="17.6414105">
        <ele>17.9218</ele>
        <time>2012-03-25T14:19:47Z</time>
      </trkpt>
      <trkpt lat="59.8659967" lon="17.6418916">
        <ele>16.9604</ele>
        <time>2012-03-25T14:19:52Z</time>
      </trkpt>
      <trkpt lat="59.8660902" lon="17.6422125">
        <ele>16.9604</ele>
        <time>2012-03-25T14:19:56Z</time>
      </trkpt>
      <trkpt lat="59.8661248" lon="17.6425232">
        <ele>17.4412</ele>
        <time>2012-03-25T14:20:00Z</time>
      </trkpt>
      <trkpt lat="59.8663791" lon="17.6430822">
        <ele>16.9604</ele>
        <time>2012-03-25T14:20:09Z</time>
      </trkpt>
      <trkpt lat="59.8664071" lon="17.6431536">
        <ele>16.9604</ele>
        <time>2012-03-25T14:20:10Z</time>
      </trkpt>
      <trkpt lat="59.8665595" lon="17.6437388">
        <ele>15.5184</ele>
        <time>2012-03-25T14:20:17Z</time>
      </trkpt>
      <trkpt lat="59.8665243" lon="17.644029">
        <ele>14.557</ele>
        <time>2012-03-25T14:20:21Z</time>
      </trkpt>
      <trkpt lat="59.866458" lon="17.6443306">
        <ele>14.0764</ele>
        <time>2012-03-25T14:20:25Z</time>
      </trkpt>
      <trkpt lat="59.8664964" lon="17.6445028">
        <ele>14.0764</ele>
        <time>2012-03-25T14:20:27Z</time>
      </trkpt>
      <trkpt lat="59.8667471" lon="17.6450569">
        <ele>14.0764</ele>
        <time>2012-03-25T14:20:35Z</time>
      </trkpt>
      <trkpt lat="59.8667972" lon="17.6452096">
        <ele>14.0764</ele>
        <time>2012-03-25T14:20:37Z</time>
      </trkpt>
      <trkpt lat="59.8669903" lon="17.6456454">
        <ele>14.0764</ele>
        <time>2012-03-25T14:20:43Z</time>
      </trkpt>
      <trkpt lat="59.8670562" lon="17.646012">
        <ele>13.5958</ele>
        <time>2012-03-25T14:20:47Z</time>
      </trkpt>
      <trkpt lat="59.8670619" lon="17.6462855">
        <ele>13.5958</ele>
        <time>2012-03-25T14:20:50Z</time>
      </trkpt>
      <trkpt lat="59.8670967" lon="17.6466513">
        <ele>14.0764</ele>
        <time>2012-03-25T14:20:55Z</time>
      </trkpt>
      <trkpt lat="59.8670463" lon="17.6467791">
        <ele>14.557</ele>
        <time>2012-03-25T14:20:57Z</time>
      </trkpt>
      <trkpt lat="59.86679" lon="17.6472103">
        <ele>13.5958</ele>
        <time>2012-03-25T14:21:04Z</time>
      </trkpt>
      <trkpt lat="59.8665073" lon="17.6476493">
        <ele>14.557</ele>
        <time>2012-03-25T14:21:10Z</time>
      </trkpt>
      <trkpt lat="59.8662444" lon="17.6481296">
        <ele>14.557</ele>
        <time>2012-03-25T14:21:16Z</time>
      </trkpt>
      <trkpt lat="59.8658974" lon="17.6487358">
        <ele>15.999</ele>
        <time>2012-03-25T14:21:23Z</time>
      </trkpt>
      <trkpt lat="59.865624" lon="17.6492595">
        <ele>16.4797</ele>
        <time>2012-03-25T14:21:30Z</time>
      </trkpt>
      <trkpt lat="59.8653536" lon="17.6497484">
        <ele>16.4797</ele>
        <time>2012-03-25T14:21:36Z</time>
      </trkpt>
      <trkpt lat="59.8650863" lon="17.650237">
        <ele>16.4797</ele>
        <time>2012-03-25T14:21:42Z</time>
      </trkpt>
      <trkpt lat="59.8647416" lon="17.6508819">
        <ele>16.9604</ele>
        <time>2012-03-25T14:21:50Z</time>
      </trkpt>
      <trkpt lat="59.8646701" lon="17.6510081">
        <ele>16.4797</ele>
        <time>2012-03-25T14:21:52Z</time>
      </trkpt>
      <trkpt lat="59.8646548" lon="17.6512646">
        <ele>15.5184</ele>
        <time>2012-03-25T14:21:56Z</time>
      </trkpt>
      <trkpt lat="59.8647165" lon="17.6513904">
        <ele>15.0377</ele>
        <time>2012-03-25T14:21:58Z</time>
      </trkpt>
      <trkpt lat="59.8650241" lon="17.6520591">
        <ele>14.557</ele>
        <time>2012-03-25T14:22:07Z</time>
      </trkpt>
      <trkpt lat="59.8652995" lon="17.6525969">
        <ele>14.0764</ele>
        <time>2012-03-25T14:22:14Z</time>
      </trkpt>
      <trkpt lat="59.8656731" lon="17.6533978">
        <ele>14.0764</ele>
        <time>2012-03-25T14:22:24Z</time>
      </trkpt>
      <trkpt lat="59.8660587" lon="17.6542288">
        <ele>14.557</ele>
        <time>2012-03-25T14:22:34Z</time>
      </trkpt>
      <trkpt lat="59.8664055" lon="17.6550104">
        <ele>14.557</ele>
        <time>2012-03-25T14:22:44Z</time>
      </trkpt>
      <trkpt lat="59.8666758" lon="17.6556388">
        <ele>15.0377</ele>
        <time>2012-03-25T14:22:52Z</time>
      </trkpt>
      <trkpt lat="59.8669522" lon="17.6562127">
        <ele>14.557</ele>
        <time>2012-03-25T14:23:00Z</time>
      </trkpt>
      <trkpt lat="59.8669832" lon="17.6562908">
        <ele>14.557</ele>
        <time>2012-03-25T14:23:01Z</time>
      </trkpt>
      <trkpt lat="59.8673004" lon="17.656923">
        <ele>14.0764</ele>
        <time>2012-03-25T14:23:10Z</time>
      </trkpt>
      <trkpt lat="59.867611" lon="17.657634">
        <ele>13.5958</ele>
        <time>2012-03-25T14:23:19Z</time>
      </trkpt>
      <trkpt lat="59.8678994" lon="17.6582924">
        <ele>14.0764</ele>
        <time>2012-03-25T14:23:28Z</time>
      </trkpt>
      <trkpt lat="59.8681506" lon="17.6588187">
        <ele>14.557</ele>
        <time>2012-03-25T14:23:36Z</time>
      </trkpt>
      <trkpt lat="59.8682038" lon="17.6590747">
        <ele>14.557</ele>
        <time>2012-03-25T14:23:40Z</time>
      </trkpt>
      <trkpt lat="59.8682099" lon="17.6592292">
        <ele>15.0377</ele>
        <time>2012-03-25T14:23:43Z</time>
      </trkpt>
      <trkpt lat="59.8682317" lon="17.6593389">
        <ele>14.0764</ele>
        <time>2012-03-25T14:23:49Z</time>
      </trkpt>
      <trkpt lat="59.8682294" lon="17.6593338">
        <ele>13.5958</ele>
        <time>2012-03-25T14:23:54Z</time>
      </trkpt>
      <trkpt lat="59.8682323" lon="17.6593078">
        <ele>14.557</ele>
        <time>2012-03-25T14:24:18Z</time>
      </trkpt>
      <trkpt lat="59.8682385" lon="17.6593315">
        <ele>14.557</ele>
        <time>2012-03-25T14:24:19Z</time>
      </trkpt>
      <trkpt lat="59.8683467" lon="17.6596314">
        <ele>15.0377</ele>
        <time>2012-03-25T14:24:23Z</time>
      </trkpt>
      <trkpt lat="59.8686208" lon="17.6602868">
        <ele>15.999</ele>
        <time>2012-03-25T14:24:31Z</time>
      </trkpt>
      <trkpt lat="59.868859" lon="17.6608842">
        <ele>16.4797</ele>
        <time>2012-03-25T14:24:38Z</time>
      </trkpt>
      <trkpt lat="59.8689044" lon="17.6611623">
        <ele>17.4412</ele>
        <time>2012-03-25T14:25:03Z</time>
      </trkpt>
      <trkpt lat="59.8687705" lon="17.6614046">
        <ele>16.9604</ele>
        <time>2012-03-25T14:25:07Z</time>
      </trkpt>
      <trkpt lat="59.8686113" lon="17.661659">
        <ele>16.9604</ele>
        <time>2012-03-25T14:25:11Z</time>
      </trkpt>
      <trkpt lat="59.8685671" lon="17.661683">
        <ele>16.9604</ele>
        <time>2012-03-25T14:25:12Z</time>
      </trkpt>
      <trkpt lat="59.8682376" lon="17.6616889">
        <ele>16.9604</ele>
        <time>2012-03-25T14:25:18Z</time>
      </trkpt>
      <trkpt lat="59.8680204" lon="17.6618998">
        <ele>16.4797</ele>
        <time>2012-03-25T14:25:22Z</time>
      </trkpt>
      <trkpt lat="59.8679566" lon="17.6621346">
        <ele>16.9604</ele>
        <time>2012-03-25T14:25:24Z</time>
      </trkpt>
      <trkpt lat="59.867636" lon="17.6635359">
        <ele>17.4412</ele>
        <time>2012-03-25T14:25:35Z</time>
      </trkpt>
      <trkpt lat="59.8673806" lon="17.6646322">
        <ele>18.4023</ele>
        <time>2012-03-25T14:25:44Z</time>
      </trkpt>
      <trkpt lat="59.8672512" lon="17.6652001">
        <ele>17.4412</ele>
        <time>2012-03-25T14:25:49Z</time>
      </trkpt>
      <trkpt lat="59.8670693" lon="17.6656713">
        <ele>20.325</ele>
        <time>2012-03-25T14:25:54Z</time>
      </trkpt>
      <trkpt lat="59.8666957" lon="17.6663351">
        <ele>19.8444</ele>
        <time>2012-03-25T14:26:02Z</time>
      </trkpt>
      <trkpt lat="59.8664949" lon="17.666794">
        <ele>20.325</ele>
        <time>2012-03-25T14:26:07Z</time>
      </trkpt>
      <trkpt lat="59.8662373" lon="17.6674091">
        <ele>21.2864</ele>
        <time>2012-03-25T14:26:13Z</time>
      </trkpt>
      <trkpt lat="59.866171" lon="17.668222">
        <ele>20.8057</ele>
        <time>2012-03-25T14:26:19Z</time>
      </trkpt>
      <trkpt lat="59.8660715" lon="17.6693581">
        <ele>18.8831</ele>
        <time>2012-03-25T14:26:28Z</time>
      </trkpt>
      <trkpt lat="59.8659817" lon="17.6706707">
        <ele>17.9218</ele>
        <time>2012-03-25T14:26:39Z</time>
      </trkpt>
      <trkpt lat="59.8659037" lon="17.6715695">
        <ele>17.4412</ele>
        <time>2012-03-25T14:26:47Z</time>
      </trkpt>
      <trkpt lat="59.8658165" lon="17.6726793">
        <ele>17.4412</ele>
        <time>2012-03-25T14:26:57Z</time>
      </trkpt>
      <trkpt lat="59.8658056" lon="17.6727885">
        <ele>17.4412</ele>
        <time>2012-03-25T14:26:58Z</time>
      </trkpt>
      <trkpt lat="59.8656644" lon="17.6730936">
        <ele>15.5184</ele>
        <time>2012-03-25T14:27:02Z</time>
      </trkpt>
      <trkpt lat="59.8656074" lon="17.6731126">
        <ele>15.5184</ele>
        <time>2012-03-25T14:27:03Z</time>
      </trkpt>
      <trkpt lat="59.8654246" lon="17.6731556">
        <ele>15.0377</ele>
        <time>2012-03-25T14:27:06Z</time>
      </trkpt>
      <trkpt lat="59.8650339" lon="17.6734961">
        <ele>17.9218</ele>
        <time>2012-03-25T14:27:13Z</time>
      </trkpt>
      <trkpt lat="59.8646506" lon="17.6739246">
        <ele>23.6896</ele>
        <time>2012-03-25T14:27:20Z</time>
      </trkpt>
      <trkpt lat="59.8643306" lon="17.674334">
        <ele>21.767</ele>
        <time>2012-03-25T14:27:26Z</time>
      </trkpt>
      <trkpt lat="59.8639867" lon="17.6748059">
        <ele>22.2476</ele>
        <time>2012-03-25T14:27:32Z</time>
      </trkpt>
      <trkpt lat="59.8637271" lon="17.6752682">
        <ele>20.8057</ele>
        <time>2012-03-25T14:27:37Z</time>
      </trkpt>
      <trkpt lat="59.8634663" lon="17.6759695">
        <ele>22.2476</ele>
        <time>2012-03-25T14:27:44Z</time>
      </trkpt>
      <trkpt lat="59.8632451" lon="17.6767342">
        <ele>22.2476</ele>
        <time>2012-03-25T14:27:51Z</time>
      </trkpt>
      <trkpt lat="59.8629835" lon="17.6777754">
        <ele>21.767</ele>
        <time>2012-03-25T14:28:00Z</time>
      </trkpt>
      <trkpt lat="59.8628185" lon="17.6787021">
        <ele>22.2476</ele>
        <time>2012-03-25T14:28:08Z</time>
      </trkpt>
      <trkpt lat="59.8627189" lon="17.6793974">
        <ele>21.767</ele>
        <time>2012-03-25T14:28:15Z</time>
      </trkpt>
      <trkpt lat="59.8626269" lon="17.6802628">
        <ele>21.2864</ele>
        <time>2012-03-25T14:28:24Z</time>
      </trkpt>
      <trkpt lat="59.8625693" lon="17.6813342">
        <ele>20.325</ele>
        <time>2012-03-25T14:28:34Z</time>
      </trkpt>
      <trkpt lat="59.8625702" lon="17.6820408">
        <ele>20.8057</ele>
        <time>2012-03-25T14:28:41Z</time>
      </trkpt>
      <trkpt lat="59.862517" lon="17.6824046">
        <ele>20.8057</ele>
        <time>2012-03-25T14:28:45Z</time>
      </trkpt>
      <trkpt lat="59.8625204" lon="17.6827555">
        <ele>20.8057</ele>
        <time>2012-03-25T14:28:49Z</time>
      </trkpt>
      <trkpt lat="59.8625842" lon="17.6830987">
        <ele>20.8057</ele>
        <time>2012-03-25T14:28:53Z</time>
      </trkpt>
      <trkpt lat="59.8625346" lon="17.6834142">
        <ele>20.325</ele>
        <time>2012-03-25T14:28:57Z</time>
      </trkpt>
      <trkpt lat="59.8624931" lon="17.6834527">
        <ele>19.8444</ele>
        <time>2012-03-25T14:28:58Z</time>
      </trkpt>
      <trkpt lat="59.8620078" lon="17.6837693">
        <ele>18.8831</ele>
        <time>2012-03-25T14:29:07Z</time>
      </trkpt>
      <trkpt lat="59.8613705" lon="17.6842256">
        <ele>19.3638</ele>
        <time>2012-03-25T14:29:18Z</time>
      </trkpt>
      <trkpt lat="59.8608234" lon="17.6846912">
        <ele>19.8444</ele>
        <time>2012-03-25T14:29:27Z</time>
      </trkpt>
      <trkpt lat="59.8603728" lon="17.6851905">
        <ele>19.3638</ele>
        <time>2012-03-25T14:29:35Z</time>
      </trkpt>
      <trkpt lat="59.8601165" lon="17.685502">
        <ele>18.8831</ele>
        <time>2012-03-25T14:29:40Z</time>
      </trkpt>
      <trkpt lat="59.859854" lon="17.6858575">
        <ele>18.4023</ele>
        <time>2012-03-25T14:29:46Z</time>
      </trkpt>
      <trkpt lat="59.8597299" lon="17.6860163">
        <ele>18.8831</ele>
        <time>2012-03-25T14:29:49Z</time>
      </trkpt>
      <trkpt lat="59.8596029" lon="17.6863556">
        <ele>19.8444</ele>
        <time>2012-03-25T14:29:54Z</time>
      </trkpt>
      <trkpt lat="59.8595606" lon="17.6864137">
        <ele>20.325</ele>
        <time>2012-03-25T14:29:58Z</time>
      </trkpt>
      <trkpt lat="59.8595021" lon="17.6865031">
        <ele>20.8057</ele>
        <time>2012-03-25T14:30:09Z</time>
      </trkpt>
      <trkpt lat="59.8593546" lon="17.6866277">
        <ele>21.2864</ele>
        <time>2012-03-25T14:30:13Z</time>
      </trkpt>
      <trkpt lat="59.8591184" lon="17.6866774">
        <ele>21.2864</ele>
        <time>2012-03-25T14:30:18Z</time>
      </trkpt>
      <trkpt lat="59.8590044" lon="17.686839">
        <ele>19.8444</ele>
        <time>2012-03-25T14:30:21Z</time>
      </trkpt>
      <trkpt lat="59.859041" lon="17.6870777">
        <ele>19.3638</ele>
        <time>2012-03-25T14:30:23Z</time>
      </trkpt>
      <trkpt lat="59.8591587" lon="17.6874191">
        <ele>18.4023</ele>
        <time>2012-03-25T14:30:26Z</time>
      </trkpt>
      <trkpt lat="59.859312" lon="17.6879802">
        <ele>19.8444</ele>
        <time>2012-03-25T14:30:31Z</time>
      </trkpt>
      <trkpt lat="59.8593579" lon="17.6881531">
        <ele>20.325</ele>
        <time>2012-03-25T14:30:33Z</time>
      </trkpt>
      <trkpt lat="59.8594525" lon="17.688736">
        <ele>19.8444</ele>
        <time>2012-03-25T14:30:40Z</time>
      </trkpt>
      <trkpt lat="59.8596108" lon="17.6895104">
        <ele>19.8444</ele>
        <time>2012-03-25T14:30:48Z</time>
      </trkpt>
      <trkpt lat="59.8597378" lon="17.6904044">
        <ele>19.8444</ele>
        <time>2012-03-25T14:30:56Z</time>
      </trkpt>
      <trkpt lat="59.8599312" lon="17.6913634">
        <ele>19.3638</ele>
        <time>2012-03-25T14:31:05Z</time>
      </trkpt>
      <trkpt lat="59.8600911" lon="17.6924035">
        <ele>17.9218</ele>
        <time>2012-03-25T14:31:14Z</time>
      </trkpt>
      <trkpt lat="59.8602629" lon="17.6929199">
        <ele>16.9604</ele>
        <time>2012-03-25T14:31:19Z</time>
      </trkpt>
      <trkpt lat="59.8604491" lon="17.6932407">
        <ele>15.999</ele>
        <time>2012-03-25T14:31:23Z</time>
      </trkpt>
      <trkpt lat="59.860531" lon="17.6936891">
        <ele>15.999</ele>
        <time>2012-03-25T14:31:27Z</time>
      </trkpt>
      <trkpt lat="59.8605921" lon="17.6946085">
        <ele>15.999</ele>
        <time>2012-03-25T14:31:34Z</time>
      </trkpt>
      <trkpt lat="59.8607405" lon="17.6954935">
        <ele>15.999</ele>
        <time>2012-03-25T14:31:41Z</time>
      </trkpt>
      <trkpt lat="59.8608624" lon="17.6961083">
        <ele>15.5184</ele>
        <time>2012-03-25T14:31:46Z</time>
      </trkpt>
      <trkpt lat="59.86088" lon="17.6967766">
        <ele>15.999</ele>
        <time>2012-03-25T14:31:51Z</time>
      </trkpt>
      <trkpt lat="59.8609505" lon="17.6972479">
        <ele>15.999</ele>
        <time>2012-03-25T14:31:55Z</time>
      </trkpt>
      <trkpt lat="59.8611945" lon="17.698047">
        <ele>16.9604</ele>
        <time>2012-03-25T14:32:03Z</time>
      </trkpt>
      <trkpt lat="59.8612503" lon="17.6982502">
        <ele>16.4797</ele>
        <time>2012-03-25T14:32:05Z</time>
      </trkpt>
      <trkpt lat="59.8614105" lon="17.6985967">
        <ele>16.9604</ele>
        <time>2012-03-25T14:32:09Z</time>
      </trkpt>
      <trkpt lat="59.8615768" lon="17.6990629">
        <ele>16.9604</ele>
        <time>2012-03-25T14:32:14Z</time>
      </trkpt>
      <trkpt lat="59.8616897" lon="17.7000523">
        <ele>17.4412</ele>
        <time>2012-03-25T14:32:23Z</time>
      </trkpt>
      <trkpt lat="59.8617208" lon="17.7010076">
        <ele>17.4412</ele>
        <time>2012-03-25T14:32:31Z</time>
      </trkpt>
      <trkpt lat="59.8618859" lon="17.7019118">
        <ele>17.9218</ele>
        <time>2012-03-25T14:32:39Z</time>
      </trkpt>
      <trkpt lat="59.8620725" lon="17.7026572">
        <ele>18.4023</ele>
        <time>2012-03-25T14:32:46Z</time>
      </trkpt>
      <trkpt lat="59.8621139" lon="17.7029925">
        <ele>18.8831</ele>
        <time>2012-03-25T14:32:49Z</time>
      </trkpt>
      <trkpt lat="59.8620978" lon="17.7038844">
        <ele>18.4023</ele>
        <time>2012-03-25T14:32:57Z</time>
      </trkpt>
      <trkpt lat="59.8620192" lon="17.7040538">
        <ele>18.4023</ele>
        <time>2012-03-25T14:33:00Z</time>
      </trkpt>
      <trkpt lat="59.8618912" lon="17.7039909">
        <ele>17.9218</ele>
        <time>2012-03-25T14:33:03Z</time>
      </trkpt>
      <trkpt lat="59.8616864" lon="17.7039207">
        <ele>19.8444</ele>
        <time>2012-03-25T14:33:32Z</time>
      </trkpt>
      <trkpt lat="59.8616767" lon="17.7039194">
        <ele>19.8444</ele>
        <time>2012-03-25T14:33:33Z</time>
      </trkpt>
      <trkpt lat="59.8616634" lon="17.7039148">
        <ele>19.8444</ele>
        <time>2012-03-25T14:33:34Z</time>
      </trkpt>
      <trkpt lat="59.8615404" lon="17.7038592">
        <ele>19.8444</ele>
        <time>2012-03-25T14:33:42Z</time>
      </trkpt>
      <trkpt lat="59.8614134" lon="17.7038079">
        <ele>20.325</ele>
        <time>2012-03-25T14:33:51Z</time>
      </trkpt>
      <trkpt lat="59.8613026" lon="17.7037624">
        <ele>21.2864</ele>
        <time>2012-03-25T14:33:59Z</time>
      </trkpt>
      <trkpt lat="59.8611981" lon="17.7037256">
        <ele>22.2476</ele>
        <time>2012-03-25T14:34:07Z</time>
      </trkpt>
      <trkpt lat="59.8610981" lon="17.7037007">
        <ele>21.767</ele>
        <time>2012-03-25T14:34:14Z</time>
      </trkpt>
      <trkpt lat="59.8610018" lon="17.7036874">
        <ele>21.767</ele>
        <time>2012-03-25T14:34:21Z</time>
      </trkpt>
      <trkpt lat="59.8608802" lon="17.7036898">
        <ele>22.2476</ele>
        <time>2012-03-25T14:34:29Z</time>
      </trkpt>
      <trkpt lat="59.8607935" lon="17.7037251">
        <ele>22.7283</ele>
        <time>2012-03-25T14:34:36Z</time>
      </trkpt>
      <trkpt lat="59.8606914" lon="17.7037726">
        <ele>21.767</ele>
        <time>2012-03-25T14:34:43Z</time>
      </trkpt>
      <trkpt lat="59.8605837" lon="17.7038147">
        <ele>21.767</ele>
        <time>2012-03-25T14:34:52Z</time>
      </trkpt>
      <trkpt lat="59.8605386" lon="17.7038318">
        <ele>21.2864</ele>
        <time>2012-03-25T14:34:55Z</time>
      </trkpt>
      <trkpt lat="59.8604241" lon="17.7039018">
        <ele>21.2864</ele>
        <time>2012-03-25T14:35:02Z</time>
      </trkpt>
      <trkpt lat="59.8602793" lon="17.7039777">
        <ele>21.2864</ele>
        <time>2012-03-25T14:35:06Z</time>
      </trkpt>
      <trkpt lat="59.8599968" lon="17.7040933">
        <ele>21.767</ele>
        <time>2012-03-25T14:35:11Z</time>
      </trkpt>
      <trkpt lat="59.8595223" lon="17.7043015">
        <ele>22.7283</ele>
        <time>2012-03-25T14:35:18Z</time>
      </trkpt>
      <trkpt lat="59.8591768" lon="17.7045126">
        <ele>22.7283</ele>
        <time>2012-03-25T14:35:23Z</time>
      </trkpt>
      <trkpt lat="59.8589742" lon="17.704773">
        <ele>22.7283</ele>
        <time>2012-03-25T14:35:27Z</time>
      </trkpt>
      <trkpt lat="59.8589203" lon="17.7048833">
        <ele>23.209</ele>
        <time>2012-03-25T14:35:29Z</time>
      </trkpt>
      <trkpt lat="59.8588732" lon="17.704967">
        <ele>23.209</ele>
        <time>2012-03-25T14:35:32Z</time>
      </trkpt>
      <trkpt lat="59.8587992" lon="17.7052272">
        <ele>22.7283</ele>
        <time>2012-03-25T14:35:37Z</time>
      </trkpt>
      <trkpt lat="59.8586716" lon="17.7058629">
        <ele>22.2476</ele>
        <time>2012-03-25T14:35:44Z</time>
      </trkpt>
      <trkpt lat="59.8585579" lon="17.7066076">
        <ele>21.767</ele>
        <time>2012-03-25T14:35:51Z</time>
      </trkpt>
      <trkpt lat="59.8584656" lon="17.7076288">
        <ele>21.2864</ele>
        <time>2012-03-25T14:36:00Z</time>
      </trkpt>
      <trkpt lat="59.8583569" lon="17.7085529">
        <ele>23.209</ele>
        <time>2012-03-25T14:36:09Z</time>
      </trkpt>
      <trkpt lat="59.858319" lon="17.7091223">
        <ele>23.6896</ele>
        <time>2012-03-25T14:36:15Z</time>
      </trkpt>
      <trkpt lat="59.8583486" lon="17.709694">
        <ele>24.1703</ele>
        <time>2012-03-25T14:36:21Z</time>
      </trkpt>
      <trkpt lat="59.8584768" lon="17.7105431">
        <ele>24.1703</ele>
        <time>2012-03-25T14:36:30Z</time>
      </trkpt>
      <trkpt lat="59.8585095" lon="17.7107591">
        <ele>23.6896</ele>
        <time>2012-03-25T14:36:32Z</time>
      </trkpt>
      <trkpt lat="59.8585454" lon="17.7111858">
        <ele>22.7283</ele>
        <time>2012-03-25T14:36:36Z</time>
      </trkpt>
      <trkpt lat="59.8584676" lon="17.7118398">
        <ele>22.7283</ele>
        <time>2012-03-25T14:36:42Z</time>
      </trkpt>
      <trkpt lat="59.8582848" lon="17.7127592">
        <ele>22.2476</ele>
        <time>2012-03-25T14:36:50Z</time>
      </trkpt>
      <trkpt lat="59.8581696" lon="17.713707">
        <ele>22.2476</ele>
        <time>2012-03-25T14:36:57Z</time>
      </trkpt>
      <trkpt lat="59.857994" lon="17.7143044">
        <ele>22.2476</ele>
        <time>2012-03-25T14:37:02Z</time>
      </trkpt>
      <trkpt lat="59.8577533" lon="17.715139">
        <ele>22.7283</ele>
        <time>2012-03-25T14:37:09Z</time>
      </trkpt>
      <trkpt lat="59.8576249" lon="17.7160629">
        <ele>22.7283</ele>
        <time>2012-03-25T14:37:16Z</time>
      </trkpt>
      <trkpt lat="59.857648" lon="17.716889">
        <ele>22.2476</ele>
        <time>2012-03-25T14:37:22Z</time>
      </trkpt>
      <trkpt lat="59.8576561" lon="17.718147">
        <ele>22.2476</ele>
        <time>2012-03-25T14:37:31Z</time>
      </trkpt>
      <trkpt lat="59.8576714" lon="17.7194907">
        <ele>22.2476</ele>
        <time>2012-03-25T14:37:41Z</time>
      </trkpt>
      <trkpt lat="59.8577053" lon="17.7206332">
        <ele>23.6896</ele>
        <time>2012-03-25T14:37:50Z</time>
      </trkpt>
      <trkpt lat="59.8577008" lon="17.7213561">
        <ele>24.651</ele>
        <time>2012-03-25T14:37:57Z</time>
      </trkpt>
      <trkpt lat="59.8576965" lon="17.7214574">
        <ele>24.651</ele>
        <time>2012-03-25T14:37:58Z</time>
      </trkpt>
      <trkpt lat="59.857662" lon="17.7217646">
        <ele>24.651</ele>
        <time>2012-03-25T14:38:01Z</time>
      </trkpt>
      <trkpt lat="59.8575573" lon="17.722158">
        <ele>24.651</ele>
        <time>2012-03-25T14:38:05Z</time>
      </trkpt>
      <trkpt lat="59.8573094" lon="17.7226302">
        <ele>23.209</ele>
        <time>2012-03-25T14:38:11Z</time>
      </trkpt>
      <trkpt lat="59.8570028" lon="17.7231432">
        <ele>22.7283</ele>
        <time>2012-03-25T14:38:17Z</time>
      </trkpt>
      <trkpt lat="59.8566578" lon="17.7238165">
        <ele>21.767</ele>
        <time>2012-03-25T14:38:23Z</time>
      </trkpt>
      <trkpt lat="59.856202" lon="17.7248607">
        <ele>20.8057</ele>
        <time>2012-03-25T14:38:31Z</time>
      </trkpt>
      <trkpt lat="59.8557341" lon="17.7260276">
        <ele>20.325</ele>
        <time>2012-03-25T14:38:40Z</time>
      </trkpt>
      <trkpt lat="59.8552928" lon="17.7272873">
        <ele>21.2864</ele>
        <time>2012-03-25T14:38:50Z</time>
      </trkpt>
      <trkpt lat="59.854889" lon="17.7283372">
        <ele>21.2864</ele>
        <time>2012-03-25T14:38:59Z</time>
      </trkpt>
      <trkpt lat="59.8544884" lon="17.7293645">
        <ele>21.2864</ele>
        <time>2012-03-25T14:39:08Z</time>
      </trkpt>
      <trkpt lat="59.8541334" lon="17.7303404">
        <ele>19.8444</ele>
        <time>2012-03-25T14:39:16Z</time>
      </trkpt>
      <trkpt lat="59.853959" lon="17.7311646">
        <ele>17.4412</ele>
        <time>2012-03-25T14:39:21Z</time>
      </trkpt>
      <trkpt lat="59.8538157" lon="17.7324502">
        <ele>15.0377</ele>
        <time>2012-03-25T14:39:28Z</time>
      </trkpt>
      <trkpt lat="59.8537397" lon="17.7330945">
        <ele>15.0377</ele>
        <time>2012-03-25T14:39:32Z</time>
      </trkpt>
      <trkpt lat="59.8535972" lon="17.7337185">
        <ele>16.4797</ele>
        <time>2012-03-25T14:39:37Z</time>
      </trkpt>
      <trkpt lat="59.8534207" lon="17.7341347">
        <ele>17.4412</ele>
        <time>2012-03-25T14:39:42Z</time>
      </trkpt>
      <trkpt lat="59.8531254" lon="17.7345627">
        <ele>19.3638</ele>
        <time>2012-03-25T14:39:50Z</time>
      </trkpt>
      <trkpt lat="59.8527359" lon="17.7350299">
        <ele>19.8444</ele>
        <time>2012-03-25T14:39:59Z</time>
      </trkpt>
      <trkpt lat="59.8523161" lon="17.7355245">
        <ele>19.8444</ele>
        <time>2012-03-25T14:40:07Z</time>
      </trkpt>
      <trkpt lat="59.851877" lon="17.7361153">
        <ele>20.325</ele>
        <time>2012-03-25T14:40:15Z</time>
      </trkpt>
      <trkpt lat="59.8513864" lon="17.7368455">
        <ele>20.325</ele>
        <time>2012-03-25T14:40:24Z</time>
      </trkpt>
      <trkpt lat="59.8508579" lon="17.7373397">
        <ele>19.8444</ele>
        <time>2012-03-25T14:40:32Z</time>
      </trkpt>
      <trkpt lat="59.8503756" lon="17.7376827">
        <ele>20.325</ele>
        <time>2012-03-25T14:40:39Z</time>
      </trkpt>
      <trkpt lat="59.8497469" lon="17.7379877">
        <ele>20.8057</ele>
        <time>2012-03-25T14:40:48Z</time>
      </trkpt>
      <trkpt lat="59.8490958" lon="17.7382658">
        <ele>21.2864</ele>
        <time>2012-03-25T14:40:57Z</time>
      </trkpt>
      <trkpt lat="59.8487193" lon="17.7384513">
        <ele>21.2864</ele>
        <time>2012-03-25T14:41:02Z</time>
      </trkpt>
      <trkpt lat="59.8482627" lon="17.7387446">
        <ele>21.2864</ele>
        <time>2012-03-25T14:41:08Z</time>
      </trkpt>
      <trkpt lat="59.8480234" lon="17.7388496">
        <ele>21.2864</ele>
        <time>2012-03-25T14:41:11Z</time>
      </trkpt>
      <trkpt lat="59.8478499" lon="17.7391055">
        <ele>21.767</ele>
        <time>2012-03-25T14:41:14Z</time>
      </trkpt>
      <trkpt lat="59.8478156" lon="17.7395109">
        <ele>21.767</ele>
        <time>2012-03-25T14:41:17Z</time>
      </trkpt>
      <trkpt lat="59.8478034" lon="17.7409431">
        <ele>21.2864</ele>
        <time>2012-03-25T14:41:28Z</time>
      </trkpt>
      <trkpt lat="59.8477837" lon="17.7422832">
        <ele>20.8057</ele>
        <time>2012-03-25T14:41:39Z</time>
      </trkpt>
      <trkpt lat="59.847763" lon="17.7437642">
        <ele>20.8057</ele>
        <time>2012-03-25T14:41:51Z</time>
      </trkpt>
      <trkpt lat="59.8477623" lon="17.7438834">
        <ele>20.8057</ele>
        <time>2012-03-25T14:41:52Z</time>
      </trkpt>
      <trkpt lat="59.8477548" lon="17.7444483">
        <ele>20.325</ele>
        <time>2012-03-25T14:41:57Z</time>
      </trkpt>
      <trkpt lat="59.8477411" lon="17.745342">
        <ele>20.8057</ele>
        <time>2012-03-25T14:42:05Z</time>
      </trkpt>
      <trkpt lat="59.8477335" lon="17.7461998">
        <ele>21.767</ele>
        <time>2012-03-25T14:42:13Z</time>
      </trkpt>
      <trkpt lat="59.847722" lon="17.7471474">
        <ele>23.209</ele>
        <time>2012-03-25T14:42:22Z</time>
      </trkpt>
      <trkpt lat="59.8477111" lon="17.7481159">
        <ele>24.651</ele>
        <time>2012-03-25T14:42:32Z</time>
      </trkpt>
      <trkpt lat="59.8477361" lon="17.7492254">
        <ele>25.6123</ele>
        <time>2012-03-25T14:42:43Z</time>
      </trkpt>
      <trkpt lat="59.8477821" lon="17.7501263">
        <ele>25.6123</ele>
        <time>2012-03-25T14:42:51Z</time>
      </trkpt>
      <trkpt lat="59.8478397" lon="17.7509187">
        <ele>24.651</ele>
        <time>2012-03-25T14:42:57Z</time>
      </trkpt>
      <trkpt lat="59.8479431" lon="17.7519506">
        <ele>22.2476</ele>
        <time>2012-03-25T14:43:04Z</time>
      </trkpt>
      <trkpt lat="59.8481385" lon="17.7533886">
        <ele>18.8831</ele>
        <time>2012-03-25T14:43:13Z</time>
      </trkpt>
      <trkpt lat="59.8483276" lon="17.7550175">
        <ele>17.4412</ele>
        <time>2012-03-25T14:43:23Z</time>
      </trkpt>
      <trkpt lat="59.8484297" lon="17.7563671">
        <ele>16.4797</ele>
        <time>2012-03-25T14:43:32Z</time>
      </trkpt>
      <trkpt lat="59.8484561" lon="17.7574619">
        <ele>16.9604</ele>
        <time>2012-03-25T14:43:40Z</time>
      </trkpt>
      <trkpt lat="59.8484251" lon="17.7589088">
        <ele>17.4412</ele>
        <time>2012-03-25T14:43:51Z</time>
      </trkpt>
      <trkpt lat="59.8484085" lon="17.7596981">
        <ele>17.4412</ele>
        <time>2012-03-25T14:43:57Z</time>
      </trkpt>
      <trkpt lat="59.8483727" lon="17.7611975">
        <ele>17.9218</ele>
        <time>2012-03-25T14:44:09Z</time>
      </trkpt>
      <trkpt lat="59.8483406" lon="17.762545">
        <ele>17.9218</ele>
        <time>2012-03-25T14:44:20Z</time>
      </trkpt>
      <trkpt lat="59.8483314" lon="17.7627819">
        <ele>17.9218</ele>
        <time>2012-03-25T14:44:22Z</time>
      </trkpt>
      <trkpt lat="59.8482069" lon="17.7632124">
        <ele>17.4412</ele>
        <time>2012-03-25T14:44:26Z</time>
      </trkpt>
      <trkpt lat="59.8476851" lon="17.7642948">
        <ele>15.999</ele>
        <time>2012-03-25T14:44:37Z</time>
      </trkpt>
      <trkpt lat="59.8472981" lon="17.7651147">
        <ele>15.999</ele>
        <time>2012-03-25T14:44:45Z</time>
      </trkpt>
      <trkpt lat="59.8472019" lon="17.7655939">
        <ele>15.5184</ele>
        <time>2012-03-25T14:44:49Z</time>
      </trkpt>
      <trkpt lat="59.8472367" lon="17.7658465">
        <ele>15.5184</ele>
        <time>2012-03-25T14:44:51Z</time>
      </trkpt>
      <trkpt lat="59.8473994" lon="17.7668143">
        <ele>15.999</ele>
        <time>2012-03-25T14:44:59Z</time>
      </trkpt>
      <trkpt lat="59.8476108" lon="17.7680805">
        <ele>15.999</ele>
        <time>2012-03-25T14:45:09Z</time>
      </trkpt>
      <trkpt lat="59.8478516" lon="17.7695948">
        <ele>15.999</ele>
        <time>2012-03-25T14:45:21Z</time>
      </trkpt>
      <trkpt lat="59.8480111" lon="17.7701695">
        <ele>15.5184</ele>
        <time>2012-03-25T14:45:26Z</time>
      </trkpt>
      <trkpt lat="59.8480938" lon="17.7707966">
        <ele>15.5184</ele>
        <time>2012-03-25T14:45:31Z</time>
      </trkpt>
      <trkpt lat="59.8481881" lon="17.7715145">
        <ele>15.999</ele>
        <time>2012-03-25T14:45:37Z</time>
      </trkpt>
      <trkpt lat="59.8483767" lon="17.7725748">
        <ele>17.4412</ele>
        <time>2012-03-25T14:45:47Z</time>
      </trkpt>
      <trkpt lat="59.8484569" lon="17.773218">
        <ele>19.3638</ele>
        <time>2012-03-25T14:45:54Z</time>
      </trkpt>
      <trkpt lat="59.8485347" lon="17.7739608">
        <ele>20.8057</ele>
        <time>2012-03-25T14:46:03Z</time>
      </trkpt>
      <trkpt lat="59.8486233" lon="17.7747525">
        <ele>22.2476</ele>
        <time>2012-03-25T14:46:13Z</time>
      </trkpt>
      <trkpt lat="59.8486997" lon="17.7755782">
        <ele>23.6896</ele>
        <time>2012-03-25T14:46:24Z</time>
      </trkpt>
      <trkpt lat="59.8487291" lon="17.7760765">
        <ele>24.651</ele>
        <time>2012-03-25T14:46:31Z</time>
      </trkpt>
      <trkpt lat="59.8487682" lon="17.7768497">
        <ele>25.1317</ele>
        <time>2012-03-25T14:46:41Z</time>
      </trkpt>
      <trkpt lat="59.8488155" lon="17.7774788">
        <ele>25.6123</ele>
        <time>2012-03-25T14:46:49Z</time>
      </trkpt>
      <trkpt lat="59.8488465" lon="17.7781801">
        <ele>26.0929</ele>
        <time>2012-03-25T14:46:57Z</time>
      </trkpt>
      <trkpt lat="59.8488797" lon="17.7789812">
        <ele>26.0929</ele>
        <time>2012-03-25T14:47:05Z</time>
      </trkpt>
      <trkpt lat="59.8489305" lon="17.7796141">
        <ele>26.0929</ele>
        <time>2012-03-25T14:47:11Z</time>
      </trkpt>
      <trkpt lat="59.8490737" lon="17.7803869">
        <ele>25.6123</ele>
        <time>2012-03-25T14:47:18Z</time>
      </trkpt>
      <trkpt lat="59.8492316" lon="17.7813473">
        <ele>25.6123</ele>
        <time>2012-03-25T14:47:26Z</time>
      </trkpt>
      <trkpt lat="59.849444" lon="17.7823749">
        <ele>26.0929</ele>
        <time>2012-03-25T14:47:35Z</time>
      </trkpt>
      <trkpt lat="59.8496915" lon="17.7835354">
        <ele>26.5736</ele>
        <time>2012-03-25T14:47:46Z</time>
      </trkpt>
      <trkpt lat="59.849795" lon="17.7840775">
        <ele>27.0543</ele>
        <time>2012-03-25T14:47:51Z</time>
      </trkpt>
      <trkpt lat="59.8500004" lon="17.7849034">
        <ele>28.4962</ele>
        <time>2012-03-25T14:48:00Z</time>
      </trkpt>
      <trkpt lat="59.8502076" lon="17.7855402">
        <ele>29.4575</ele>
        <time>2012-03-25T14:48:08Z</time>
      </trkpt>
      <trkpt lat="59.8504425" lon="17.7861622">
        <ele>29.9381</ele>
        <time>2012-03-25T14:48:18Z</time>
      </trkpt>
      <trkpt lat="59.8506534" lon="17.7867175">
        <ele>30.4188</ele>
        <time>2012-03-25T14:48:27Z</time>
      </trkpt>
      <trkpt lat="59.8508646" lon="17.7872419">
        <ele>30.4188</ele>
        <time>2012-03-25T14:48:36Z</time>
      </trkpt>
      <trkpt lat="59.8510471" lon="17.7876614">
        <ele>31.3801</ele>
        <time>2012-03-25T14:48:42Z</time>
      </trkpt>
      <trkpt lat="59.8512616" lon="17.7882066">
        <ele>31.3801</ele>
        <time>2012-03-25T14:48:49Z</time>
      </trkpt>
      <trkpt lat="59.8515477" lon="17.7889059">
        <ele>31.3801</ele>
        <time>2012-03-25T14:48:58Z</time>
      </trkpt>
      <trkpt lat="59.8518573" lon="17.7896893">
        <ele>30.4188</ele>
        <time>2012-03-25T14:49:07Z</time>
      </trkpt>
      <trkpt lat="59.8522304" lon="17.790614">
        <ele>30.4188</ele>
        <time>2012-03-25T14:49:17Z</time>
      </trkpt>
      <trkpt lat="59.8526155" lon="17.7915822">
        <ele>29.9381</ele>
        <time>2012-03-25T14:49:27Z</time>
      </trkpt>
      <trkpt lat="59.8529168" lon="17.7923991">
        <ele>29.9381</ele>
        <time>2012-03-25T14:49:35Z</time>
      </trkpt>
      <trkpt lat="59.853192" lon="17.7932016">
        <ele>30.8995</ele>
        <time>2012-03-25T14:49:43Z</time>
      </trkpt>
      <trkpt lat="59.8533708" lon="17.7936924">
        <ele>31.3801</ele>
        <time>2012-03-25T14:49:48Z</time>
      </trkpt>
      <trkpt lat="59.8534807" lon="17.7939943">
        <ele>31.3801</ele>
        <time>2012-03-25T14:49:51Z</time>
      </trkpt>
      <trkpt lat="59.8537724" lon="17.7949036">
        <ele>31.8607</ele>
        <time>2012-03-25T14:50:00Z</time>
      </trkpt>
      <trkpt lat="59.8540121" lon="17.7957429">
        <ele>31.8607</ele>
        <time>2012-03-25T14:50:08Z</time>
      </trkpt>
      <trkpt lat="59.8542384" lon="17.7965974">
        <ele>32.3416</ele>
        <time>2012-03-25T14:50:16Z</time>
      </trkpt>
      <trkpt lat="59.8544707" lon="17.7973927">
        <ele>31.8607</ele>
        <time>2012-03-25T14:50:23Z</time>
      </trkpt>
      <trkpt lat="59.8547277" lon="17.7983707">
        <ele>30.8995</ele>
        <time>2012-03-25T14:50:31Z</time>
      </trkpt>
      <trkpt lat="59.8549395" lon="17.7991835">
        <ele>31.3801</ele>
        <time>2012-03-25T14:50:38Z</time>
      </trkpt>
      <trkpt lat="59.8552169" lon="17.8001392">
        <ele>31.3801</ele>
        <time>2012-03-25T14:50:47Z</time>
      </trkpt>
      <trkpt lat="59.8554601" lon="17.8010052">
        <ele>30.4188</ele>
        <time>2012-03-25T14:50:55Z</time>
      </trkpt>
      <trkpt lat="59.8556653" lon="17.8018637">
        <ele>28.9769</ele>
        <time>2012-03-25T14:51:02Z</time>
      </trkpt>
      <trkpt lat="59.8557194" lon="17.8021449">
        <ele>28.0155</ele>
        <time>2012-03-25T14:51:04Z</time>
      </trkpt>
      <trkpt lat="59.8559352" lon="17.802941">
        <ele>25.6123</ele>
        <time>2012-03-25T14:51:10Z</time>
      </trkpt>
      <trkpt lat="59.8561159" lon="17.8033793">
        <ele>23.6896</ele>
        <time>2012-03-25T14:51:14Z</time>
      </trkpt>
      <trkpt lat="59.8564355" lon="17.8043538">
        <ele>20.8057</ele>
        <time>2012-03-25T14:51:23Z</time>
      </trkpt>
      <trkpt lat="59.8566069" lon="17.804883">
        <ele>19.3638</ele>
        <time>2012-03-25T14:51:28Z</time>
      </trkpt>
      <trkpt lat="59.8568251" lon="17.805302">
        <ele>17.9218</ele>
        <time>2012-03-25T14:51:33Z</time>
      </trkpt>
      <trkpt lat="59.8568416" lon="17.8055011">
        <ele>17.4412</ele>
        <time>2012-03-25T14:51:35Z</time>
      </trkpt>
      <trkpt lat="59.85678" lon="17.8056762">
        <ele>16.9604</ele>
        <time>2012-03-25T14:51:37Z</time>
      </trkpt>
      <trkpt lat="59.8567251" lon="17.8058918">
        <ele>16.9604</ele>
        <time>2012-03-25T14:51:39Z</time>
      </trkpt>
      <trkpt lat="59.8566361" lon="17.8061443">
        <ele>15.999</ele>
        <time>2012-03-25T14:51:42Z</time>
      </trkpt>
      <trkpt lat="59.8566503" lon="17.806378">
        <ele>16.4797</ele>
        <time>2012-03-25T14:51:44Z</time>
      </trkpt>
      <trkpt lat="59.8567059" lon="17.806677">
        <ele>17.9218</ele>
        <time>2012-03-25T14:51:47Z</time>
      </trkpt>
      <trkpt lat="59.8566941" lon="17.8070511">
        <ele>19.3638</ele>
        <time>2012-03-25T14:51:51Z</time>
      </trkpt>
      <trkpt lat="59.8566751" lon="17.8071433">
        <ele>19.8444</ele>
        <time>2012-03-25T14:51:52Z</time>
      </trkpt>
      <trkpt lat="59.8564516" lon="17.8081298">
        <ele>22.2476</ele>
        <time>2012-03-25T14:52:03Z</time>
      </trkpt>
      <trkpt lat="59.8564219" lon="17.8082894">
        <ele>22.7283</ele>
        <time>2012-03-25T14:52:05Z</time>
      </trkpt>
      <trkpt lat="59.8563873" lon="17.8087929">
        <ele>23.6896</ele>
        <time>2012-03-25T14:52:11Z</time>
      </trkpt>
      <trkpt lat="59.8564651" lon="17.8091212">
        <ele>23.6896</ele>
        <time>2012-03-25T14:52:15Z</time>
      </trkpt>
      <trkpt lat="59.8568005" lon="17.8097819">
        <ele>23.6896</ele>
        <time>2012-03-25T14:52:24Z</time>
      </trkpt>
      <trkpt lat="59.8568945" lon="17.8100477">
        <ele>24.1703</ele>
        <time>2012-03-25T14:52:27Z</time>
      </trkpt>
      <trkpt lat="59.8569519" lon="17.8105805">
        <ele>24.651</ele>
        <time>2012-03-25T14:52:32Z</time>
      </trkpt>
      <trkpt lat="59.856944" lon="17.8111977">
        <ele>25.6123</ele>
        <time>2012-03-25T14:52:38Z</time>
      </trkpt>
      <trkpt lat="59.8569658" lon="17.8116398">
        <ele>24.651</ele>
        <time>2012-03-25T14:52:42Z</time>
      </trkpt>
      <trkpt lat="59.8571342" lon="17.8125086">
        <ele>24.651</ele>
        <time>2012-03-25T14:52:50Z</time>
      </trkpt>
      <trkpt lat="59.8573068" lon="17.8130299">
        <ele>24.651</ele>
        <time>2012-03-25T14:52:56Z</time>
      </trkpt>
      <trkpt lat="59.8574772" lon="17.813479">
        <ele>23.209</ele>
        <time>2012-03-25T14:53:01Z</time>
      </trkpt>
      <trkpt lat="59.857532" lon="17.8139815">
        <ele>23.6896</ele>
        <time>2012-03-25T14:53:06Z</time>
      </trkpt>
      <trkpt lat="59.8575011" lon="17.8142648">
        <ele>23.6896</ele>
        <time>2012-03-25T14:53:09Z</time>
      </trkpt>
      <trkpt lat="59.8575319" lon="17.8145781">
        <ele>24.1703</ele>
        <time>2012-03-25T14:53:13Z</time>
      </trkpt>
      <trkpt lat="59.8575824" lon="17.8146709">
        <ele>24.1703</ele>
        <time>2012-03-25T14:53:15Z</time>
      </trkpt>
      <trkpt lat="59.8576645" lon="17.8147812">
        <ele>24.651</ele>
        <time>2012-03-25T14:53:18Z</time>
      </trkpt>
      <trkpt lat="59.8578743" lon="17.8149922">
        <ele>24.651</ele>
        <time>2012-03-25T14:53:24Z</time>
      </trkpt>
      <trkpt lat="59.8581196" lon="17.8151312">
        <ele>25.6123</ele>
        <time>2012-03-25T14:53:31Z</time>
      </trkpt>
      <trkpt lat="59.8584221" lon="17.8153556">
        <ele>26.0929</ele>
        <time>2012-03-25T14:53:40Z</time>
      </trkpt>
      <trkpt lat="59.858707" lon="17.8155827">
        <ele>25.1317</ele>
        <time>2012-03-25T14:53:46Z</time>
      </trkpt>
      <trkpt lat="59.8591106" lon="17.8159328">
        <ele>25.6123</ele>
        <time>2012-03-25T14:53:54Z</time>
      </trkpt>
      <trkpt lat="59.8595726" lon="17.816325">
        <ele>26.0929</ele>
        <time>2012-03-25T14:54:03Z</time>
      </trkpt>
      <trkpt lat="59.860048" lon="17.8167702">
        <ele>26.5736</ele>
        <time>2012-03-25T14:54:13Z</time>
      </trkpt>
      <trkpt lat="59.8605105" lon="17.8173702">
        <ele>27.5349</ele>
        <time>2012-03-25T14:54:24Z</time>
      </trkpt>
      <trkpt lat="59.8608708" lon="17.8178668">
        <ele>28.4962</ele>
        <time>2012-03-25T14:54:34Z</time>
      </trkpt>
      <trkpt lat="59.8611806" lon="17.8182077">
        <ele>28.4962</ele>
        <time>2012-03-25T14:54:42Z</time>
      </trkpt>
      <trkpt lat="59.8615764" lon="17.8185229">
        <ele>29.9381</ele>
        <time>2012-03-25T14:54:51Z</time>
      </trkpt>
      <trkpt lat="59.8616523" lon="17.8185808">
        <ele>29.9381</ele>
        <time>2012-03-25T14:54:53Z</time>
      </trkpt>
      <trkpt lat="59.8617436" lon="17.818642">
        <ele>29.9381</ele>
        <time>2012-03-25T14:54:55Z</time>
      </trkpt>
      <trkpt lat="59.8620785" lon="17.8188581">
        <ele>28.9769</ele>
        <time>2012-03-25T14:55:01Z</time>
      </trkpt>
      <trkpt lat="59.8623082" lon="17.8191133">
        <ele>28.0155</ele>
        <time>2012-03-25T14:55:05Z</time>
      </trkpt>
      <trkpt lat="59.8624536" lon="17.8195273">
        <ele>27.5349</ele>
        <time>2012-03-25T14:55:09Z</time>
      </trkpt>
      <trkpt lat="59.8625983" lon="17.8203415">
        <ele>25.6123</ele>
        <time>2012-03-25T14:55:16Z</time>
      </trkpt>
      <trkpt lat="59.8627929" lon="17.8211002">
        <ele>21.2864</ele>
        <time>2012-03-25T14:55:22Z</time>
      </trkpt>
      <trkpt lat="59.8631115" lon="17.8221417">
        <ele>18.8831</ele>
        <time>2012-03-25T14:55:29Z</time>
      </trkpt>
      <trkpt lat="59.8635266" lon="17.8232515">
        <ele>16.9604</ele>
        <time>2012-03-25T14:55:37Z</time>
      </trkpt>
      <trkpt lat="59.8639369" lon="17.8241759">
        <ele>16.9604</ele>
        <time>2012-03-25T14:55:45Z</time>
      </trkpt>
      <trkpt lat="59.8641901" lon="17.8247234">
        <ele>17.9218</ele>
        <time>2012-03-25T14:55:51Z</time>
      </trkpt>
      <trkpt lat="59.8644677" lon="17.8253142">
        <ele>18.8831</ele>
        <time>2012-03-25T14:55:59Z</time>
      </trkpt>
      <trkpt lat="59.8646083" lon="17.8256305">
        <ele>19.8444</ele>
        <time>2012-03-25T14:56:04Z</time>
      </trkpt>
      <trkpt lat="59.8647034" lon="17.8258149">
        <ele>20.8057</ele>
        <time>2012-03-25T14:56:07Z</time>
      </trkpt>
      <trkpt lat="59.8649329" lon="17.8262729">
        <ele>24.651</ele>
        <time>2012-03-25T14:56:15Z</time>
      </trkpt>
      <trkpt lat="59.8649911" lon="17.8263743">
        <ele>25.1317</ele>
        <time>2012-03-25T14:56:17Z</time>
      </trkpt>
      <trkpt lat="59.8652396" lon="17.8266254">
        <ele>25.1317</ele>
        <time>2012-03-25T14:56:24Z</time>
      </trkpt>
      <trkpt lat="59.8655758" lon="17.8267136">
        <ele>23.6896</ele>
        <time>2012-03-25T14:56:31Z</time>
      </trkpt>
      <trkpt lat="59.8660042" lon="17.8267944">
        <ele>23.209</ele>
        <time>2012-03-25T14:56:40Z</time>
      </trkpt>
      <trkpt lat="59.8663019" lon="17.8268134">
        <ele>23.209</ele>
        <time>2012-03-25T14:56:47Z</time>
      </trkpt>
      <trkpt lat="59.8666292" lon="17.8267027">
        <ele>22.7283</ele>
        <time>2012-03-25T14:56:55Z</time>
      </trkpt>
      <trkpt lat="59.8670739" lon="17.8264531">
        <ele>22.7283</ele>
        <time>2012-03-25T14:57:06Z</time>
      </trkpt>
      <trkpt lat="59.8674033" lon="17.8262158">
        <ele>23.6896</ele>
        <time>2012-03-25T14:57:15Z</time>
      </trkpt>
      <trkpt lat="59.8676868" lon="17.8260073">
        <ele>24.651</ele>
        <time>2012-03-25T14:57:23Z</time>
      </trkpt>
      <trkpt lat="59.8679557" lon="17.8257934">
        <ele>25.6123</ele>
        <time>2012-03-25T14:57:31Z</time>
      </trkpt>
      <trkpt lat="59.86823" lon="17.8256284">
        <ele>25.6123</ele>
        <time>2012-03-25T14:57:39Z</time>
      </trkpt>
      <trkpt lat="59.8684312" lon="17.8256708">
        <ele>25.6123</ele>
        <time>2012-03-25T14:57:44Z</time>
      </trkpt>
      <trkpt lat="59.8685133" lon="17.8257288">
        <ele>25.6123</ele>
        <time>2012-03-25T14:57:46Z</time>
      </trkpt>
      <trkpt lat="59.8688119" lon="17.8261604">
        <ele>25.6123</ele>
        <time>2012-03-25T14:57:54Z</time>
      </trkpt>
      <trkpt lat="59.8692103" lon="17.8269093">
        <ele>25.1317</ele>
        <time>2012-03-25T14:58:04Z</time>
      </trkpt>
      <trkpt lat="59.8695843" lon="17.8275578">
        <ele>25.6123</ele>
        <time>2012-03-25T14:58:13Z</time>
      </trkpt>
      <trkpt lat="59.8698797" lon="17.8280183">
        <ele>24.1703</ele>
        <time>2012-03-25T14:58:19Z</time>
      </trkpt>
      <trkpt lat="59.8703095" lon="17.8284749">
        <ele>23.209</ele>
        <time>2012-03-25T14:58:26Z</time>
      </trkpt>
      <trkpt lat="59.8708383" lon="17.8289845">
        <ele>21.767</ele>
        <time>2012-03-25T14:58:35Z</time>
      </trkpt>
      <trkpt lat="59.8713471" lon="17.8294672">
        <ele>22.2476</ele>
        <time>2012-03-25T14:58:45Z</time>
      </trkpt>
      <trkpt lat="59.8718158" lon="17.8299028">
        <ele>23.209</ele>
        <time>2012-03-25T14:58:55Z</time>
      </trkpt>
      <trkpt lat="59.872067" lon="17.8301428">
        <ele>24.1703</ele>
        <time>2012-03-25T14:59:02Z</time>
      </trkpt>
      <trkpt lat="59.8722581" lon="17.8303146">
        <ele>24.651</ele>
        <time>2012-03-25T14:59:08Z</time>
      </trkpt>
      <trkpt lat="59.8724664" lon="17.8305001">
        <ele>25.6123</ele>
        <time>2012-03-25T14:59:15Z</time>
      </trkpt>
      <trkpt lat="59.8726477" lon="17.8306184">
        <ele>26.0929</ele>
        <time>2012-03-25T14:59:22Z</time>
      </trkpt>
      <trkpt lat="59.8728628" lon="17.83071">
        <ele>28.0155</ele>
        <time>2012-03-25T14:59:29Z</time>
      </trkpt>
      <trkpt lat="59.8730693" lon="17.8308239">
        <ele>28.4962</ele>
        <time>2012-03-25T14:59:35Z</time>
      </trkpt>
      <trkpt lat="59.8733523" lon="17.8310617">
        <ele>29.4575</ele>
        <time>2012-03-25T14:59:44Z</time>
      </trkpt>
      <trkpt lat="59.8736437" lon="17.8313255">
        <ele>31.8607</ele>
        <time>2012-03-25T14:59:53Z</time>
      </trkpt>
      <trkpt lat="59.8739107" lon="17.8316756">
        <ele>33.3029</ele>
        <time>2012-03-25T15:00:02Z</time>
      </trkpt>
      <trkpt lat="59.8742338" lon="17.8320703">
        <ele>33.3029</ele>
        <time>2012-03-25T15:00:12Z</time>
      </trkpt>
      <trkpt lat="59.8744905" lon="17.8322831">
        <ele>33.3029</ele>
        <time>2012-03-25T15:00:18Z</time>
      </trkpt>
      <trkpt lat="59.8748248" lon="17.8323993">
        <ele>31.8607</ele>
        <time>2012-03-25T15:00:24Z</time>
      </trkpt>
      <trkpt lat="59.8752631" lon="17.8325185">
        <ele>32.8223</ele>
        <time>2012-03-25T15:00:32Z</time>
      </trkpt>
      <trkpt lat="59.8754644" lon="17.8326241">
        <ele>33.3029</ele>
        <time>2012-03-25T15:00:36Z</time>
      </trkpt>
      <trkpt lat="59.8758926" lon="17.833027">
        <ele>32.8223</ele>
        <time>2012-03-25T15:00:45Z</time>
      </trkpt>
      <trkpt lat="59.8762489" lon="17.8333223">
        <ele>33.3029</ele>
        <time>2012-03-25T15:00:52Z</time>
      </trkpt>
      <trkpt lat="59.8764965" lon="17.8335019">
        <ele>34.2642</ele>
        <time>2012-03-25T15:00:58Z</time>
      </trkpt>
      <trkpt lat="59.8768192" lon="17.833699">
        <ele>33.7834</ele>
        <time>2012-03-25T15:01:05Z</time>
      </trkpt>
      <trkpt lat="59.8771735" lon="17.8340121">
        <ele>33.3029</ele>
        <time>2012-03-25T15:01:11Z</time>
      </trkpt>
      <trkpt lat="59.8775416" lon="17.8344672">
        <ele>32.8223</ele>
        <time>2012-03-25T15:01:18Z</time>
      </trkpt>
      <trkpt lat="59.8780432" lon="17.835057">
        <ele>32.3416</ele>
        <time>2012-03-25T15:01:28Z</time>
      </trkpt>
      <trkpt lat="59.8781909" lon="17.8351985">
        <ele>31.8607</ele>
        <time>2012-03-25T15:01:31Z</time>
      </trkpt>
      <trkpt lat="59.8786153" lon="17.8355808">
        <ele>30.4188</ele>
        <time>2012-03-25T15:01:40Z</time>
      </trkpt>
      <trkpt lat="59.8790019" lon="17.8357933">
        <ele>30.4188</ele>
        <time>2012-03-25T15:01:48Z</time>
      </trkpt>
      <trkpt lat="59.8793866" lon="17.8358606">
        <ele>29.4575</ele>
        <time>2012-03-25T15:01:55Z</time>
      </trkpt>
      <trkpt lat="59.8797019" lon="17.8358833">
        <ele>30.4188</ele>
        <time>2012-03-25T15:02:01Z</time>
      </trkpt>
      <trkpt lat="59.8799905" lon="17.8359746">
        <ele>31.8607</ele>
        <time>2012-03-25T15:02:08Z</time>
      </trkpt>
      <trkpt lat="59.8802479" lon="17.8362056">
        <ele>31.3801</ele>
        <time>2012-03-25T15:02:13Z</time>
      </trkpt>
      <trkpt lat="59.8807238" lon="17.8368117">
        <ele>32.8223</ele>
        <time>2012-03-25T15:02:22Z</time>
      </trkpt>
      <trkpt lat="59.8810062" lon="17.8372794">
        <ele>33.7834</ele>
        <time>2012-03-25T15:02:29Z</time>
      </trkpt>
      <trkpt lat="59.8813278" lon="17.8377659">
        <ele>32.8223</ele>
        <time>2012-03-25T15:02:36Z</time>
      </trkpt>
      <trkpt lat="59.8816088" lon="17.8381764">
        <ele>32.3416</ele>
        <time>2012-03-25T15:02:42Z</time>
      </trkpt>
      <trkpt lat="59.8818967" lon="17.8386045">
        <ele>30.4188</ele>
        <time>2012-03-25T15:02:49Z</time>
      </trkpt>
      <trkpt lat="59.882202" lon="17.8389309">
        <ele>31.3801</ele>
        <time>2012-03-25T15:02:56Z</time>
      </trkpt>
      <trkpt lat="59.8822447" lon="17.8389561">
        <ele>31.3801</ele>
        <time>2012-03-25T15:02:57Z</time>
      </trkpt>
      <trkpt lat="59.8825448" lon="17.8390319">
        <ele>31.8607</ele>
        <time>2012-03-25T15:03:04Z</time>
      </trkpt>
      <trkpt lat="59.8826696" lon="17.8390753">
        <ele>31.8607</ele>
        <time>2012-03-25T15:03:07Z</time>
      </trkpt>
      <trkpt lat="59.8827549" lon="17.8391142">
        <ele>31.3801</ele>
        <time>2012-03-25T15:03:09Z</time>
      </trkpt>
      <trkpt lat="59.8830398" lon="17.8394274">
        <ele>30.4188</ele>
        <time>2012-03-25T15:03:15Z</time>
      </trkpt>
      <trkpt lat="59.8833948" lon="17.8399161">
        <ele>27.5349</ele>
        <time>2012-03-25T15:03:21Z</time>
      </trkpt>
      <trkpt lat="59.8840587" lon="17.8407869">
        <ele>24.651</ele>
        <time>2012-03-25T15:03:31Z</time>
      </trkpt>
      <trkpt lat="59.8845137" lon="17.8412895">
        <ele>24.651</ele>
        <time>2012-03-25T15:03:38Z</time>
      </trkpt>
      <trkpt lat="59.8849131" lon="17.8415023">
        <ele>25.6123</ele>
        <time>2012-03-25T15:03:44Z</time>
      </trkpt>
      <trkpt lat="59.885275" lon="17.8414986">
        <ele>25.6123</ele>
        <time>2012-03-25T15:03:50Z</time>
      </trkpt>
      <trkpt lat="59.8856243" lon="17.8414577">
        <ele>25.1317</ele>
        <time>2012-03-25T15:03:57Z</time>
      </trkpt>
      <trkpt lat="59.8859612" lon="17.8414366">
        <ele>26.5736</ele>
        <time>2012-03-25T15:04:04Z</time>
      </trkpt>
      <trkpt lat="59.886348" lon="17.8412925">
        <ele>26.0929</ele>
        <time>2012-03-25T15:04:12Z</time>
      </trkpt>
      <trkpt lat="59.8867178" lon="17.8410946">
        <ele>27.0543</ele>
        <time>2012-03-25T15:04:20Z</time>
      </trkpt>
      <trkpt lat="59.8867692" lon="17.8410869">
        <ele>27.0543</ele>
        <time>2012-03-25T15:04:21Z</time>
      </trkpt>
      <trkpt lat="59.8868712" lon="17.8410996">
        <ele>27.5349</ele>
        <time>2012-03-25T15:04:23Z</time>
      </trkpt>
      <trkpt lat="59.8870212" lon="17.8411894">
        <ele>27.0543</ele>
        <time>2012-03-25T15:04:26Z</time>
      </trkpt>
      <trkpt lat="59.887152" lon="17.8413347">
        <ele>27.0543</ele>
        <time>2012-03-25T15:04:29Z</time>
      </trkpt>
      <trkpt lat="59.8872839" lon="17.8415886">
        <ele>28.0155</ele>
        <time>2012-03-25T15:04:33Z</time>
      </trkpt>
      <trkpt lat="59.8875001" lon="17.8421108">
        <ele>28.9769</ele>
        <time>2012-03-25T15:04:41Z</time>
      </trkpt>
      <trkpt lat="59.8879014" lon="17.8426696">
        <ele>28.4962</ele>
        <time>2012-03-25T15:04:51Z</time>
      </trkpt>
      <trkpt lat="59.8882682" lon="17.8430053">
        <ele>29.4575</ele>
        <time>2012-03-25T15:05:00Z</time>
      </trkpt>
      <trkpt lat="59.8885117" lon="17.8431312">
        <ele>29.9381</ele>
        <time>2012-03-25T15:05:06Z</time>
      </trkpt>
      <trkpt lat="59.8889176" lon="17.8432235">
        <ele>29.9381</ele>
        <time>2012-03-25T15:05:15Z</time>
      </trkpt>
      <trkpt lat="59.8892281" lon="17.8434092">
        <ele>29.9381</ele>
        <time>2012-03-25T15:05:22Z</time>
      </trkpt>
      <trkpt lat="59.8893286" lon="17.8434572">
        <ele>30.4188</ele>
        <time>2012-03-25T15:05:24Z</time>
      </trkpt>
      <trkpt lat="59.889588" lon="17.8433672">
        <ele>30.4188</ele>
        <time>2012-03-25T15:05:29Z</time>
      </trkpt>
      <trkpt lat="59.8897467" lon="17.8429807">
        <ele>29.9381</ele>
        <time>2012-03-25T15:05:34Z</time>
      </trkpt>
      <trkpt lat="59.88977" lon="17.8428045">
        <ele>30.4188</ele>
        <time>2012-03-25T15:05:36Z</time>
      </trkpt>
      <trkpt lat="59.8898169" lon="17.8421257">
        <ele>32.8223</ele>
        <time>2012-03-25T15:05:45Z</time>
      </trkpt>
      <trkpt lat="59.8898846" lon="17.8415343">
        <ele>33.3029</ele>
        <time>2012-03-25T15:05:53Z</time>
      </trkpt>
      <trkpt lat="59.8899591" lon="17.8412097">
        <ele>33.7834</ele>
        <time>2012-03-25T15:05:57Z</time>
      </trkpt>
      <trkpt lat="59.8901481" lon="17.8409102">
        <ele>33.7834</ele>
        <time>2012-03-25T15:06:02Z</time>
      </trkpt>
      <trkpt lat="59.8903012" lon="17.8409563">
        <ele>33.7834</ele>
        <time>2012-03-25T15:06:05Z</time>
      </trkpt>
      <trkpt lat="59.8904337" lon="17.8411063">
        <ele>34.2642</ele>
        <time>2012-03-25T15:06:08Z</time>
      </trkpt>
      <trkpt lat="59.8907888" lon="17.841667">
        <ele>35.7061</ele>
        <time>2012-03-25T15:06:17Z</time>
      </trkpt>
      <trkpt lat="59.8911394" lon="17.8420439">
        <ele>36.1868</ele>
        <time>2012-03-25T15:06:25Z</time>
      </trkpt>
      <trkpt lat="59.8915307" lon="17.8422793">
        <ele>36.1868</ele>
        <time>2012-03-25T15:06:33Z</time>
      </trkpt>
      <trkpt lat="59.8919762" lon="17.8423931">
        <ele>35.2255</ele>
        <time>2012-03-25T15:06:41Z</time>
      </trkpt>
      <trkpt lat="59.8924118" lon="17.842571">
        <ele>34.2642</ele>
        <time>2012-03-25T15:06:48Z</time>
      </trkpt>
      <trkpt lat="59.8924761" lon="17.8426025">
        <ele>34.2642</ele>
        <time>2012-03-25T15:06:49Z</time>
      </trkpt>
      <trkpt lat="59.8929112" lon="17.842814">
        <ele>31.8607</ele>
        <time>2012-03-25T15:06:56Z</time>
      </trkpt>
      <trkpt lat="59.8933826" lon="17.8430288">
        <ele>30.8995</ele>
        <time>2012-03-25T15:07:03Z</time>
      </trkpt>
      <trkpt lat="59.8938597" lon="17.8431172">
        <ele>31.8607</ele>
        <time>2012-03-25T15:07:10Z</time>
      </trkpt>
      <trkpt lat="59.8939941" lon="17.8431247">
        <ele>31.8607</ele>
        <time>2012-03-25T15:07:12Z</time>
      </trkpt>
      <trkpt lat="59.8944361" lon="17.8431439">
        <ele>32.3416</ele>
        <time>2012-03-25T15:07:19Z</time>
      </trkpt>
      <trkpt lat="59.8948486" lon="17.8432165">
        <ele>31.3801</ele>
        <time>2012-03-25T15:07:26Z</time>
      </trkpt>
      <trkpt lat="59.8949116" lon="17.8432174">
        <ele>30.8995</ele>
        <time>2012-03-25T15:07:27Z</time>
      </trkpt>
      <trkpt lat="59.8953602" lon="17.8430753">
        <ele>28.9769</ele>
        <time>2012-03-25T15:07:35Z</time>
      </trkpt>
      <trkpt lat="59.8956544" lon="17.8429485">
        <ele>28.0155</ele>
        <time>2012-03-25T15:07:41Z</time>
      </trkpt>
      <trkpt lat="59.895995" lon="17.84282">
        <ele>29.9381</ele>
        <time>2012-03-25T15:07:48Z</time>
      </trkpt>
      <trkpt lat="59.896361" lon="17.8428699">
        <ele>30.4188</ele>
        <time>2012-03-25T15:07:55Z</time>
      </trkpt>
      <trkpt lat="59.8964933" lon="17.8429283">
        <ele>31.3801</ele>
        <time>2012-03-25T15:07:58Z</time>
      </trkpt>
      <trkpt lat="59.8966363" lon="17.842932">
        <ele>32.3416</ele>
        <time>2012-03-25T15:08:02Z</time>
      </trkpt>
      <trkpt lat="59.8967878" lon="17.8429112">
        <ele>33.3029</ele>
        <time>2012-03-25T15:08:07Z</time>
      </trkpt>
      <trkpt lat="59.8969466" lon="17.8428048">
        <ele>30.8995</ele>
        <time>2012-03-25T15:08:12Z</time>
      </trkpt>
      <trkpt lat="59.8971433" lon="17.8426755">
        <ele>28.9769</ele>
        <time>2012-03-25T15:08:18Z</time>
      </trkpt>
      <trkpt lat="59.8973514" lon="17.8425075">
        <ele>31.3801</ele>
        <time>2012-03-25T15:08:24Z</time>
      </trkpt>
      <trkpt lat="59.897552" lon="17.8423938">
        <ele>32.8223</ele>
        <time>2012-03-25T15:08:30Z</time>
      </trkpt>
      <trkpt lat="59.8978619" lon="17.842299">
        <ele>34.7449</ele>
        <time>2012-03-25T15:08:37Z</time>
      </trkpt>
      <trkpt lat="59.8979049" lon="17.8422978">
        <ele>34.7449</ele>
        <time>2012-03-25T15:08:38Z</time>
      </trkpt>
      <trkpt lat="59.8979923" lon="17.8423172">
        <ele>34.2642</ele>
        <time>2012-03-25T15:08:40Z</time>
      </trkpt>
      <trkpt lat="59.8982898" lon="17.8423376">
        <ele>33.3029</ele>
        <time>2012-03-25T15:08:47Z</time>
      </trkpt>
      <trkpt lat="59.8986106" lon="17.8422383">
        <ele>32.8223</ele>
        <time>2012-03-25T15:08:55Z</time>
      </trkpt>
      <trkpt lat="59.8988651" lon="17.8421253">
        <ele>33.3029</ele>
        <time>2012-03-25T15:09:02Z</time>
      </trkpt>
      <trkpt lat="59.8990657" lon="17.8420061">
        <ele>33.7834</ele>
        <time>2012-03-25T15:09:08Z</time>
      </trkpt>
      <trkpt lat="59.8992887" lon="17.8417809">
        <ele>34.2642</ele>
        <time>2012-03-25T15:09:14Z</time>
      </trkpt>
      <trkpt lat="59.8994604" lon="17.8416125">
        <ele>35.2255</ele>
        <time>2012-03-25T15:09:18Z</time>
      </trkpt>
      <trkpt lat="59.8996716" lon="17.8415088">
        <ele>34.2642</ele>
        <time>2012-03-25T15:09:22Z</time>
      </trkpt>
      <trkpt lat="59.9001712" lon="17.8414406">
        <ele>32.8223</ele>
        <time>2012-03-25T15:09:29Z</time>
      </trkpt>
      <trkpt lat="59.9006394" lon="17.8414658">
        <ele>30.4188</ele>
        <time>2012-03-25T15:09:35Z</time>
      </trkpt>
      <trkpt lat="59.9013373" lon="17.841557">
        <ele>30.4188</ele>
        <time>2012-03-25T15:09:44Z</time>
      </trkpt>
      <trkpt lat="59.9018774" lon="17.8416451">
        <ele>28.9769</ele>
        <time>2012-03-25T15:09:52Z</time>
      </trkpt>
      <trkpt lat="59.9022022" lon="17.8416699">
        <ele>28.4962</ele>
        <time>2012-03-25T15:09:58Z</time>
      </trkpt>
      <trkpt lat="59.9025249" lon="17.8415328">
        <ele>27.5349</ele>
        <time>2012-03-25T15:10:03Z</time>
      </trkpt>
      <trkpt lat="59.9030107" lon="17.8413323">
        <ele>27.0543</ele>
        <time>2012-03-25T15:10:10Z</time>
      </trkpt>
      <trkpt lat="59.9030769" lon="17.8413197">
        <ele>27.0543</ele>
        <time>2012-03-25T15:10:11Z</time>
      </trkpt>
      <trkpt lat="59.9033781" lon="17.8414606">
        <ele>28.0155</ele>
        <time>2012-03-25T15:10:16Z</time>
      </trkpt>
      <trkpt lat="59.9034816" lon="17.8416044">
        <ele>28.0155</ele>
        <time>2012-03-25T15:10:18Z</time>
      </trkpt>
      <trkpt lat="59.903636" lon="17.84184">
        <ele>26.5736</ele>
        <time>2012-03-25T15:10:21Z</time>
      </trkpt>
      <trkpt lat="59.9039545" lon="17.8420607">
        <ele>24.651</ele>
        <time>2012-03-25T15:10:26Z</time>
      </trkpt>
      <trkpt lat="59.904178" lon="17.8420286">
        <ele>24.1703</ele>
        <time>2012-03-25T15:10:29Z</time>
      </trkpt>
      <trkpt lat="59.9045908" lon="17.8417773">
        <ele>24.1703</ele>
        <time>2012-03-25T15:10:35Z</time>
      </trkpt>
      <trkpt lat="59.9049654" lon="17.841552">
        <ele>23.209</ele>
        <time>2012-03-25T15:10:41Z</time>
      </trkpt>
      <trkpt lat="59.9053377" lon="17.841412">
        <ele>21.2864</ele>
        <time>2012-03-25T15:10:46Z</time>
      </trkpt>
      <trkpt lat="59.9058236" lon="17.8411907">
        <ele>19.3638</ele>
        <time>2012-03-25T15:10:52Z</time>
      </trkpt>
      <trkpt lat="59.9060799" lon="17.8408994">
        <ele>18.8831</ele>
        <time>2012-03-25T15:10:56Z</time>
      </trkpt>
      <trkpt lat="59.9062955" lon="17.8405619">
        <ele>19.3638</ele>
        <time>2012-03-25T15:11:00Z</time>
      </trkpt>
      <trkpt lat="59.9065834" lon="17.8402584">
        <ele>20.325</ele>
        <time>2012-03-25T15:11:06Z</time>
      </trkpt>
      <trkpt lat="59.9066616" lon="17.8401664">
        <ele>20.325</ele>
        <time>2012-03-25T15:11:08Z</time>
      </trkpt>
      <trkpt lat="59.9067852" lon="17.8400704">
        <ele>20.8057</ele>
        <time>2012-03-25T15:11:11Z</time>
      </trkpt>
      <trkpt lat="59.9069592" lon="17.8399563">
        <ele>21.2864</ele>
        <time>2012-03-25T15:11:15Z</time>
      </trkpt>
      <trkpt lat="59.9071098" lon="17.8398519">
        <ele>22.7283</ele>
        <time>2012-03-25T15:11:19Z</time>
      </trkpt>
      <trkpt lat="59.9071834" lon="17.8397909">
        <ele>22.2476</ele>
        <time>2012-03-25T15:11:21Z</time>
      </trkpt>
      <trkpt lat="59.9073709" lon="17.8396343">
        <ele>22.2476</ele>
        <time>2012-03-25T15:11:27Z</time>
      </trkpt>
      <trkpt lat="59.9075304" lon="17.8394694">
        <ele>22.2476</ele>
        <time>2012-03-25T15:11:32Z</time>
      </trkpt>
      <trkpt lat="59.9077426" lon="17.8392177">
        <ele>22.2476</ele>
        <time>2012-03-25T15:11:38Z</time>
      </trkpt>
      <trkpt lat="59.90805" lon="17.8388702">
        <ele>21.767</ele>
        <time>2012-03-25T15:11:44Z</time>
      </trkpt>
      <trkpt lat="59.908365" lon="17.8387572">
        <ele>21.2864</ele>
        <time>2012-03-25T15:11:49Z</time>
      </trkpt>
      <trkpt lat="59.9086316" lon="17.8388879">
        <ele>20.325</ele>
        <time>2012-03-25T15:11:53Z</time>
      </trkpt>
      <trkpt lat="59.9088752" lon="17.8392306">
        <ele>18.4023</ele>
        <time>2012-03-25T15:11:57Z</time>
      </trkpt>
      <trkpt lat="59.9091772" lon="17.8400114">
        <ele>15.0377</ele>
        <time>2012-03-25T15:12:03Z</time>
      </trkpt>
      <trkpt lat="59.9095133" lon="17.8409688">
        <ele>14.0764</ele>
        <time>2012-03-25T15:12:10Z</time>
      </trkpt>
      <trkpt lat="59.9096112" lon="17.8416769">
        <ele>14.557</ele>
        <time>2012-03-25T15:12:15Z</time>
      </trkpt>
      <trkpt lat="59.9096046" lon="17.8420419">
        <ele>15.5184</ele>
        <time>2012-03-25T15:12:18Z</time>
      </trkpt>
      <trkpt lat="59.9095604" lon="17.8427076">
        <ele>17.4412</ele>
        <time>2012-03-25T15:12:25Z</time>
      </trkpt>
      <trkpt lat="59.9096211" lon="17.8430459">
        <ele>17.9218</ele>
        <time>2012-03-25T15:12:29Z</time>
      </trkpt>
      <trkpt lat="59.9097796" lon="17.843251">
        <ele>18.4023</ele>
        <time>2012-03-25T15:12:33Z</time>
      </trkpt>
      <trkpt lat="59.910076" lon="17.8435484">
        <ele>17.9218</ele>
        <time>2012-03-25T15:12:39Z</time>
      </trkpt>
      <trkpt lat="59.9104453" lon="17.8438464">
        <ele>15.5184</ele>
        <time>2012-03-25T15:12:45Z</time>
      </trkpt>
      <trkpt lat="59.9108676" lon="17.8441869">
        <ele>13.5958</ele>
        <time>2012-03-25T15:12:51Z</time>
      </trkpt>
      <trkpt lat="59.9111654" lon="17.8443268">
        <ele>13.5958</ele>
        <time>2012-03-25T15:12:55Z</time>
      </trkpt>
      <trkpt lat="59.911564" lon="17.8443395">
        <ele>13.5958</ele>
        <time>2012-03-25T15:13:01Z</time>
      </trkpt>
      <trkpt lat="59.9118987" lon="17.8442511">
        <ele>14.0764</ele>
        <time>2012-03-25T15:13:07Z</time>
      </trkpt>
      <trkpt lat="59.9121791" lon="17.8440417">
        <ele>15.0377</ele>
        <time>2012-03-25T15:13:13Z</time>
      </trkpt>
      <trkpt lat="59.9124809" lon="17.8437013">
        <ele>15.5184</ele>
        <time>2012-03-25T15:13:21Z</time>
      </trkpt>
      <trkpt lat="59.9126707" lon="17.8435235">
        <ele>15.999</ele>
        <time>2012-03-25T15:13:26Z</time>
      </trkpt>
      <trkpt lat="59.913138" lon="17.8433368">
        <ele>14.557</ele>
        <time>2012-03-25T15:13:36Z</time>
      </trkpt>
      <trkpt lat="59.9135561" lon="17.8431879">
        <ele>14.557</ele>
        <time>2012-03-25T15:13:45Z</time>
      </trkpt>
      <trkpt lat="59.9139212" lon="17.8428994">
        <ele>15.0377</ele>
        <time>2012-03-25T15:13:54Z</time>
      </trkpt>
      <trkpt lat="59.9143559" lon="17.8424481">
        <ele>15.5184</ele>
        <time>2012-03-25T15:14:05Z</time>
      </trkpt>
      <trkpt lat="59.9147369" lon="17.8420323">
        <ele>15.0377</ele>
        <time>2012-03-25T15:14:15Z</time>
      </trkpt>
      <trkpt lat="59.915051" lon="17.8418725">
        <ele>16.9604</ele>
        <time>2012-03-25T15:14:23Z</time>
      </trkpt>
      <trkpt lat="59.9153778" lon="17.8418437">
        <ele>17.9218</ele>
        <time>2012-03-25T15:14:32Z</time>
      </trkpt>
      <trkpt lat="59.9156197" lon="17.8418789">
        <ele>17.9218</ele>
        <time>2012-03-25T15:14:39Z</time>
      </trkpt>
      <trkpt lat="59.9159051" lon="17.841895">
        <ele>17.9218</ele>
        <time>2012-03-25T15:14:47Z</time>
      </trkpt>
      <trkpt lat="59.9161533" lon="17.842015">
        <ele>18.4023</ele>
        <time>2012-03-25T15:14:54Z</time>
      </trkpt>
      <trkpt lat="59.9163497" lon="17.8422917">
        <ele>17.4412</ele>
        <time>2012-03-25T15:15:01Z</time>
      </trkpt>
      <trkpt lat="59.9166137" lon="17.8427069">
        <ele>18.4023</ele>
        <time>2012-03-25T15:15:11Z</time>
      </trkpt>
      <trkpt lat="59.9168677" lon="17.8430123">
        <ele>19.3638</ele>
        <time>2012-03-25T15:15:20Z</time>
      </trkpt>
      <trkpt lat="59.9170499" lon="17.8430044">
        <ele>19.3638</ele>
        <time>2012-03-25T15:15:25Z</time>
      </trkpt>
      <trkpt lat="59.9173751" lon="17.8427762">
        <ele>19.3638</ele>
        <time>2012-03-25T15:15:33Z</time>
      </trkpt>
      <trkpt lat="59.9176405" lon="17.8425617">
        <ele>20.325</ele>
        <time>2012-03-25T15:15:40Z</time>
      </trkpt>
      <trkpt lat="59.9179848" lon="17.8421848">
        <ele>20.325</ele>
        <time>2012-03-25T15:15:49Z</time>
      </trkpt>
      <trkpt lat="59.9183844" lon="17.8417825">
        <ele>20.325</ele>
        <time>2012-03-25T15:15:58Z</time>
      </trkpt>
      <trkpt lat="59.9188056" lon="17.8414276">
        <ele>21.2864</ele>
        <time>2012-03-25T15:16:07Z</time>
      </trkpt>
      <trkpt lat="59.9191782" lon="17.8411692">
        <ele>21.2864</ele>
        <time>2012-03-25T15:16:15Z</time>
      </trkpt>
      <trkpt lat="59.9196384" lon="17.8408822">
        <ele>22.2476</ele>
        <time>2012-03-25T15:16:25Z</time>
      </trkpt>
      <trkpt lat="59.9200584" lon="17.8407893">
        <ele>23.209</ele>
        <time>2012-03-25T15:16:34Z</time>
      </trkpt>
      <trkpt lat="59.9204311" lon="17.8407915">
        <ele>23.209</ele>
        <time>2012-03-25T15:16:43Z</time>
      </trkpt>
      <trkpt lat="59.9208267" lon="17.8407693">
        <ele>22.2476</ele>
        <time>2012-03-25T15:16:52Z</time>
      </trkpt>
      <trkpt lat="59.9214537" lon="17.8407289">
        <ele>22.2476</ele>
        <time>2012-03-25T15:17:06Z</time>
      </trkpt>
      <trkpt lat="59.921926" lon="17.8406149">
        <ele>22.7283</ele>
        <time>2012-03-25T15:17:17Z</time>
      </trkpt>
      <trkpt lat="59.9224484" lon="17.840443">
        <ele>23.209</ele>
        <time>2012-03-25T15:17:29Z</time>
      </trkpt>
      <trkpt lat="59.9229293" lon="17.8401894">
        <ele>23.6896</ele>
        <time>2012-03-25T15:17:41Z</time>
      </trkpt>
      <trkpt lat="59.9233985" lon="17.8399269">
        <ele>24.1703</ele>
        <time>2012-03-25T15:17:52Z</time>
      </trkpt>
      <trkpt lat="59.9237835" lon="17.8397434">
        <ele>24.651</ele>
        <time>2012-03-25T15:18:02Z</time>
      </trkpt>
      <trkpt lat="59.9241809" lon="17.8395782">
        <ele>24.651</ele>
        <time>2012-03-25T15:18:12Z</time>
      </trkpt>
      <trkpt lat="59.9246419" lon="17.8394597">
        <ele>25.1317</ele>
        <time>2012-03-25T15:18:23Z</time>
      </trkpt>
      <trkpt lat="59.9250749" lon="17.8394199">
        <ele>25.6123</ele>
        <time>2012-03-25T15:18:34Z</time>
      </trkpt>
      <trkpt lat="59.9253332" lon="17.8394281">
        <ele>25.6123</ele>
        <time>2012-03-25T15:18:40Z</time>
      </trkpt>
      <trkpt lat="59.9256982" lon="17.8394559">
        <ele>25.6123</ele>
        <time>2012-03-25T15:18:48Z</time>
      </trkpt>
      <trkpt lat="59.9259499" lon="17.8392218">
        <ele>25.1317</ele>
        <time>2012-03-25T15:18:54Z</time>
      </trkpt>
      <trkpt lat="59.9259852" lon="17.8391562">
        <ele>25.1317</ele>
        <time>2012-03-25T15:18:55Z</time>
      </trkpt>
      <trkpt lat="59.9261377" lon="17.838825">
        <ele>25.1317</ele>
        <time>2012-03-25T15:19:00Z</time>
      </trkpt>
      <trkpt lat="59.9263295" lon="17.8384108">
        <ele>25.6123</ele>
        <time>2012-03-25T15:19:07Z</time>
      </trkpt>
      <trkpt lat="59.9265428" lon="17.8380006">
        <ele>26.5736</ele>
        <time>2012-03-25T15:19:15Z</time>
      </trkpt>
      <trkpt lat="59.9267683" lon="17.8378017">
        <ele>28.0155</ele>
        <time>2012-03-25T15:19:22Z</time>
      </trkpt>
      <trkpt lat="59.9269893" lon="17.8376225">
        <ele>28.9769</ele>
        <time>2012-03-25T15:19:29Z</time>
      </trkpt>
      <trkpt lat="59.9272345" lon="17.8372896">
        <ele>28.4962</ele>
        <time>2012-03-25T15:19:37Z</time>
      </trkpt>
      <trkpt lat="59.9274288" lon="17.8370323">
        <ele>27.5349</ele>
        <time>2012-03-25T15:19:43Z</time>
      </trkpt>
      <trkpt lat="59.9277453" lon="17.8365573">
        <ele>26.0929</ele>
        <time>2012-03-25T15:19:53Z</time>
      </trkpt>
      <trkpt lat="59.9279654" lon="17.8362025">
        <ele>27.5349</ele>
        <time>2012-03-25T15:19:59Z</time>
      </trkpt>
      <trkpt lat="59.9282655" lon="17.8357553">
        <ele>28.0155</ele>
        <time>2012-03-25T15:20:07Z</time>
      </trkpt>
      <trkpt lat="59.9287357" lon="17.8350463">
        <ele>27.5349</ele>
        <time>2012-03-25T15:20:20Z</time>
      </trkpt>
      <trkpt lat="59.9290766" lon="17.8346153">
        <ele>27.5349</ele>
        <time>2012-03-25T15:20:29Z</time>
      </trkpt>
      <trkpt lat="59.9294366" lon="17.8341319">
        <ele>28.4962</ele>
        <time>2012-03-25T15:20:39Z</time>
      </trkpt>
      <trkpt lat="59.929749" lon="17.8336232">
        <ele>28.0155</ele>
        <time>2012-03-25T15:20:48Z</time>
      </trkpt>
      <trkpt lat="59.9301121" lon="17.8330219">
        <ele>26.5736</ele>
        <time>2012-03-25T15:20:57Z</time>
      </trkpt>
      <trkpt lat="59.9304959" lon="17.8324261">
        <ele>26.5736</ele>
        <time>2012-03-25T15:21:07Z</time>
      </trkpt>
      <trkpt lat="59.9308202" lon="17.8319399">
        <ele>25.6123</ele>
        <time>2012-03-25T15:21:15Z</time>
      </trkpt>
      <trkpt lat="59.9312144" lon="17.8312892">
        <ele>26.0929</ele>
        <time>2012-03-25T15:21:25Z</time>
      </trkpt>
      <trkpt lat="59.9314675" lon="17.8307384">
        <ele>27.0543</ele>
        <time>2012-03-25T15:21:33Z</time>
      </trkpt>
      <trkpt lat="59.9316685" lon="17.83012">
        <ele>28.0155</ele>
        <time>2012-03-25T15:21:41Z</time>
      </trkpt>
      <trkpt lat="59.9318847" lon="17.8293343">
        <ele>26.0929</ele>
        <time>2012-03-25T15:21:49Z</time>
      </trkpt>
      <trkpt lat="59.9320966" lon="17.8285727">
        <ele>24.651</ele>
        <time>2012-03-25T15:21:56Z</time>
      </trkpt>
      <trkpt lat="59.9323893" lon="17.827915">
        <ele>24.1703</ele>
        <time>2012-03-25T15:22:03Z</time>
      </trkpt>
      <trkpt lat="59.9327799" lon="17.8272259">
        <ele>23.6896</ele>
        <time>2012-03-25T15:22:12Z</time>
      </trkpt>
      <trkpt lat="59.9331068" lon="17.8266892">
        <ele>23.6896</ele>
        <time>2012-03-25T15:22:20Z</time>
      </trkpt>
      <trkpt lat="59.9334579" lon="17.8262762">
        <ele>24.1703</ele>
        <time>2012-03-25T15:22:29Z</time>
      </trkpt>
      <trkpt lat="59.9338536" lon="17.8260044">
        <ele>24.651</ele>
        <time>2012-03-25T15:22:39Z</time>
      </trkpt>
      <trkpt lat="59.9342567" lon="17.8258163">
        <ele>24.1703</ele>
        <time>2012-03-25T15:22:48Z</time>
      </trkpt>
      <trkpt lat="59.9347875" lon="17.8255749">
        <ele>23.6896</ele>
        <time>2012-03-25T15:22:59Z</time>
      </trkpt>
      <trkpt lat="59.9352528" lon="17.8253702">
        <ele>23.6896</ele>
        <time>2012-03-25T15:23:09Z</time>
      </trkpt>
      <trkpt lat="59.9357387" lon="17.825161">
        <ele>24.1703</ele>
        <time>2012-03-25T15:23:20Z</time>
      </trkpt>
      <trkpt lat="59.9361957" lon="17.8249658">
        <ele>24.651</ele>
        <time>2012-03-25T15:23:31Z</time>
      </trkpt>
      <trkpt lat="59.9365652" lon="17.8247729">
        <ele>25.1317</ele>
        <time>2012-03-25T15:23:41Z</time>
      </trkpt>
      <trkpt lat="59.9368466" lon="17.8244025">
        <ele>25.1317</ele>
        <time>2012-03-25T15:23:49Z</time>
      </trkpt>
      <trkpt lat="59.9370672" lon="17.8239086">
        <ele>25.6123</ele>
        <time>2012-03-25T15:23:57Z</time>
      </trkpt>
      <trkpt lat="59.9373072" lon="17.8232793">
        <ele>25.1317</ele>
        <time>2012-03-25T15:24:06Z</time>
      </trkpt>
      <trkpt lat="59.9375559" lon="17.8226011">
        <ele>25.1317</ele>
        <time>2012-03-25T15:24:15Z</time>
      </trkpt>
      <trkpt lat="59.93785" lon="17.8217526">
        <ele>24.651</ele>
        <time>2012-03-25T15:24:26Z</time>
      </trkpt>
      <trkpt lat="59.9380662" lon="17.8212372">
        <ele>25.1317</ele>
        <time>2012-03-25T15:24:33Z</time>
      </trkpt>
      <trkpt lat="59.9383173" lon="17.8206772">
        <ele>25.6123</ele>
        <time>2012-03-25T15:24:42Z</time>
      </trkpt>
      <trkpt lat="59.9385471" lon="17.8201842">
        <ele>25.1317</ele>
        <time>2012-03-25T15:24:50Z</time>
      </trkpt>
      <trkpt lat="59.9388074" lon="17.8196185">
        <ele>25.6123</ele>
        <time>2012-03-25T15:24:59Z</time>
      </trkpt>
      <trkpt lat="59.9390897" lon="17.8190149">
        <ele>23.6896</ele>
        <time>2012-03-25T15:25:08Z</time>
      </trkpt>
      <trkpt lat="59.939371" lon="17.8184389">
        <ele>23.209</ele>
        <time>2012-03-25T15:25:17Z</time>
      </trkpt>
      <trkpt lat="59.9394493" lon="17.8182581">
        <ele>23.209</ele>
        <time>2012-03-25T15:25:20Z</time>
      </trkpt>
      <trkpt lat="59.9396165" lon="17.8181614">
        <ele>23.209</ele>
        <time>2012-03-25T15:25:25Z</time>
      </trkpt>
      <trkpt lat="59.9396512" lon="17.8181979">
        <ele>23.209</ele>
        <time>2012-03-25T15:25:26Z</time>
      </trkpt>
      <trkpt lat="59.9400216" lon="17.8186682">
        <ele>22.2476</ele>
        <time>2012-03-25T15:25:35Z</time>
      </trkpt>
      <trkpt lat="59.9403726" lon="17.8191034">
        <ele>21.767</ele>
        <time>2012-03-25T15:25:43Z</time>
      </trkpt>
      <trkpt lat="59.9407725" lon="17.8196091">
        <ele>20.8057</ele>
        <time>2012-03-25T15:25:51Z</time>
      </trkpt>
      <trkpt lat="59.9413297" lon="17.8203053">
        <ele>19.8444</ele>
        <time>2012-03-25T15:26:01Z</time>
      </trkpt>
      <trkpt lat="59.941821" lon="17.8209187">
        <ele>19.8444</ele>
        <time>2012-03-25T15:26:10Z</time>
      </trkpt>
      <trkpt lat="59.942162" lon="17.8213434">
        <ele>20.8057</ele>
        <time>2012-03-25T15:26:18Z</time>
      </trkpt>
      <trkpt lat="59.9426197" lon="17.821911">
        <ele>22.7283</ele>
        <time>2012-03-25T15:26:30Z</time>
      </trkpt>
      <trkpt lat="59.9429604" lon="17.8223354">
        <ele>24.1703</ele>
        <time>2012-03-25T15:26:40Z</time>
      </trkpt>
      <trkpt lat="59.9433377" lon="17.8228014">
        <ele>25.6123</ele>
        <time>2012-03-25T15:26:51Z</time>
      </trkpt>
      <trkpt lat="59.9437474" lon="17.8233106">
        <ele>27.0543</ele>
        <time>2012-03-25T15:27:03Z</time>
      </trkpt>
      <trkpt lat="59.9441486" lon="17.8238188">
        <ele>28.9769</ele>
        <time>2012-03-25T15:27:15Z</time>
      </trkpt>
      <trkpt lat="59.9442941" lon="17.8239914">
        <ele>28.9769</ele>
        <time>2012-03-25T15:27:19Z</time>
      </trkpt>
      <trkpt lat="59.9446576" lon="17.8243612">
        <ele>28.4962</ele>
        <time>2012-03-25T15:27:28Z</time>
      </trkpt>
      <trkpt lat="59.9451587" lon="17.8248736">
        <ele>27.0543</ele>
        <time>2012-03-25T15:27:39Z</time>
      </trkpt>
      <trkpt lat="59.945629" lon="17.8253563">
        <ele>25.6123</ele>
        <time>2012-03-25T15:27:50Z</time>
      </trkpt>
      <trkpt lat="59.9461581" lon="17.8259003">
        <ele>24.651</ele>
        <time>2012-03-25T15:28:02Z</time>
      </trkpt>
      <trkpt lat="59.9465966" lon="17.8263489">
        <ele>24.1703</ele>
        <time>2012-03-25T15:28:12Z</time>
      </trkpt>
      <trkpt lat="59.9470934" lon="17.8268647">
        <ele>24.1703</ele>
        <time>2012-03-25T15:28:23Z</time>
      </trkpt>
      <trkpt lat="59.9476379" lon="17.8274268">
        <ele>24.1703</ele>
        <time>2012-03-25T15:28:35Z</time>
      </trkpt>
      <trkpt lat="59.9481009" lon="17.8279138">
        <ele>25.1317</ele>
        <time>2012-03-25T15:28:46Z</time>
      </trkpt>
      <trkpt lat="59.9484712" lon="17.8282874">
        <ele>24.651</ele>
        <time>2012-03-25T15:28:55Z</time>
      </trkpt>
      <trkpt lat="59.9487779" lon="17.8286116">
        <ele>23.6896</ele>
        <time>2012-03-25T15:29:02Z</time>
      </trkpt>
      <trkpt lat="59.9489552" lon="17.8286975">
        <ele>23.6896</ele>
        <time>2012-03-25T15:29:06Z</time>
      </trkpt>
      <trkpt lat="59.9492245" lon="17.8289374">
        <ele>23.6896</ele>
        <time>2012-03-25T15:29:12Z</time>
      </trkpt>
      <trkpt lat="59.9493093" lon="17.8290191">
        <ele>23.6896</ele>
        <time>2012-03-25T15:29:14Z</time>
      </trkpt>
      <trkpt lat="59.949597" lon="17.8294309">
        <ele>23.6896</ele>
        <time>2012-03-25T15:29:22Z</time>
      </trkpt>
      <trkpt lat="59.9497602" lon="17.8296956">
        <ele>24.1703</ele>
        <time>2012-03-25T15:29:27Z</time>
      </trkpt>
      <trkpt lat="59.9499167" lon="17.8297323">
        <ele>24.1703</ele>
        <time>2012-03-25T15:29:31Z</time>
      </trkpt>
      <trkpt lat="59.9500366" lon="17.8294299">
        <ele>23.6896</ele>
        <time>2012-03-25T15:29:35Z</time>
      </trkpt>
      <trkpt lat="59.9500551" lon="17.8291161">
        <ele>23.6896</ele>
        <time>2012-03-25T15:29:38Z</time>
      </trkpt>
      <trkpt lat="59.9500428" lon="17.8281016">
        <ele>22.7283</ele>
        <time>2012-03-25T15:29:47Z</time>
      </trkpt>
      <trkpt lat="59.9500545" lon="17.8270336">
        <ele>23.209</ele>
        <time>2012-03-25T15:29:57Z</time>
      </trkpt>
      <trkpt lat="59.9501196" lon="17.826312">
        <ele>23.6896</ele>
        <time>2012-03-25T15:30:04Z</time>
      </trkpt>
      <trkpt lat="59.9502881" lon="17.8255342">
        <ele>25.1317</ele>
        <time>2012-03-25T15:30:12Z</time>
      </trkpt>
      <trkpt lat="59.9505347" lon="17.8244435">
        <ele>26.0929</ele>
        <time>2012-03-25T15:30:24Z</time>
      </trkpt>
      <trkpt lat="59.9506855" lon="17.8236967">
        <ele>26.0929</ele>
        <time>2012-03-25T15:30:32Z</time>
      </trkpt>
      <trkpt lat="59.9507791" lon="17.8228694">
        <ele>25.6123</ele>
        <time>2012-03-25T15:30:40Z</time>
      </trkpt>
      <trkpt lat="59.9508734" lon="17.8220161">
        <ele>25.1317</ele>
        <time>2012-03-25T15:30:48Z</time>
      </trkpt>
      <trkpt lat="59.9509696" lon="17.8209552">
        <ele>26.0929</ele>
        <time>2012-03-25T15:30:58Z</time>
      </trkpt>
      <trkpt lat="59.9510296" lon="17.8198494">
        <ele>26.5736</ele>
        <time>2012-03-25T15:31:09Z</time>
      </trkpt>
      <trkpt lat="59.9510423" lon="17.8190163">
        <ele>27.5349</ele>
        <time>2012-03-25T15:31:18Z</time>
      </trkpt>
      <trkpt lat="59.9511406" lon="17.8179953">
        <ele>28.9769</ele>
        <time>2012-03-25T15:31:29Z</time>
      </trkpt>
      <trkpt lat="59.9512495" lon="17.8169679">
        <ele>29.4575</ele>
        <time>2012-03-25T15:31:39Z</time>
      </trkpt>
      <trkpt lat="59.9513344" lon="17.8159722">
        <ele>29.9381</ele>
        <time>2012-03-25T15:31:48Z</time>
      </trkpt>
      <trkpt lat="59.9513826" lon="17.8149574">
        <ele>30.4188</ele>
        <time>2012-03-25T15:31:57Z</time>
      </trkpt>
      <trkpt lat="59.95139" lon="17.8140218">
        <ele>29.9381</ele>
        <time>2012-03-25T15:32:05Z</time>
      </trkpt>
      <trkpt lat="59.9513997" lon="17.8127909">
        <ele>31.3801</ele>
        <time>2012-03-25T15:32:16Z</time>
      </trkpt>
      <trkpt lat="59.9514224" lon="17.8119161">
        <ele>32.3416</ele>
        <time>2012-03-25T15:32:25Z</time>
      </trkpt>
      <trkpt lat="59.9515202" lon="17.8111083">
        <ele>33.3029</ele>
        <time>2012-03-25T15:32:34Z</time>
      </trkpt>
      <trkpt lat="59.9516846" lon="17.8102515">
        <ele>33.7834</ele>
        <time>2012-03-25T15:32:44Z</time>
      </trkpt>
      <trkpt lat="59.9518592" lon="17.8095743">
        <ele>32.8223</ele>
        <time>2012-03-25T15:32:52Z</time>
      </trkpt>
      <trkpt lat="59.9521098" lon="17.8086283">
        <ele>32.8223</ele>
        <time>2012-03-25T15:33:03Z</time>
      </trkpt>
      <trkpt lat="59.9523083" lon="17.8078797">
        <ele>33.7834</ele>
        <time>2012-03-25T15:33:12Z</time>
      </trkpt>
      <trkpt lat="59.9524852" lon="17.8071829">
        <ele>34.7449</ele>
        <time>2012-03-25T15:33:21Z</time>
      </trkpt>
      <trkpt lat="59.9526294" lon="17.8065654">
        <ele>36.6675</ele>
        <time>2012-03-25T15:33:30Z</time>
      </trkpt>
      <trkpt lat="59.9527213" lon="17.8060627">
        <ele>36.1868</ele>
        <time>2012-03-25T15:33:37Z</time>
      </trkpt>
      <trkpt lat="59.9528258" lon="17.8052891">
        <ele>35.2255</ele>
        <time>2012-03-25T15:33:46Z</time>
      </trkpt>
      <trkpt lat="59.9529397" lon="17.8045126">
        <ele>34.7449</ele>
        <time>2012-03-25T15:33:55Z</time>
      </trkpt>
      <trkpt lat="59.9531072" lon="17.8040718">
        <ele>33.7834</ele>
        <time>2012-03-25T15:34:02Z</time>
      </trkpt>
      <trkpt lat="59.9533469" lon="17.8035521">
        <ele>35.2255</ele>
        <time>2012-03-25T15:34:11Z</time>
      </trkpt>
      <trkpt lat="59.9535122" lon="17.8030136">
        <ele>33.7834</ele>
        <time>2012-03-25T15:34:18Z</time>
      </trkpt>
      <trkpt lat="59.9536338" lon="17.8024464">
        <ele>33.7834</ele>
        <time>2012-03-25T15:34:24Z</time>
      </trkpt>
      <trkpt lat="59.9537447" lon="17.8019444">
        <ele>30.4188</ele>
        <time>2012-03-25T15:34:29Z</time>
      </trkpt>
      <trkpt lat="59.9539732" lon="17.8013352">
        <ele>28.9769</ele>
        <time>2012-03-25T15:34:36Z</time>
      </trkpt>
      <trkpt lat="59.9542675" lon="17.8005713">
        <ele>27.0543</ele>
        <time>2012-03-25T15:34:44Z</time>
      </trkpt>
      <trkpt lat="59.9546277" lon="17.7996998">
        <ele>28.4962</ele>
        <time>2012-03-25T15:34:53Z</time>
      </trkpt>
      <trkpt lat="59.9549072" lon="17.7991481">
        <ele>30.4188</ele>
        <time>2012-03-25T15:35:00Z</time>
      </trkpt>
      <trkpt lat="59.9551514" lon="17.7986618">
        <ele>30.8995</ele>
        <time>2012-03-25T15:35:07Z</time>
      </trkpt>
      <trkpt lat="59.9553841" lon="17.7979894">
        <ele>29.9381</ele>
        <time>2012-03-25T15:35:14Z</time>
      </trkpt>
      <trkpt lat="59.9556391" lon="17.797101">
        <ele>28.4962</ele>
        <time>2012-03-25T15:35:22Z</time>
      </trkpt>
      <trkpt lat="59.9558068" lon="17.7962955">
        <ele>28.9769</ele>
        <time>2012-03-25T15:35:29Z</time>
      </trkpt>
      <trkpt lat="59.9559894" lon="17.795309">
        <ele>29.9381</ele>
        <time>2012-03-25T15:35:38Z</time>
      </trkpt>
      <trkpt lat="59.956252" lon="17.7941997">
        <ele>30.8995</ele>
        <time>2012-03-25T15:35:48Z</time>
      </trkpt>
      <trkpt lat="59.9564062" lon="17.7934779">
        <ele>31.8607</ele>
        <time>2012-03-25T15:35:55Z</time>
      </trkpt>
      <trkpt lat="59.9565808" lon="17.7925698">
        <ele>32.8223</ele>
        <time>2012-03-25T15:36:05Z</time>
      </trkpt>
      <trkpt lat="59.9567352" lon="17.7916473">
        <ele>33.3029</ele>
        <time>2012-03-25T15:36:14Z</time>
      </trkpt>
      <trkpt lat="59.9567626" lon="17.7914339">
        <ele>33.7834</ele>
        <time>2012-03-25T15:36:16Z</time>
      </trkpt>
      <trkpt lat="59.9567378" lon="17.7909054">
        <ele>35.2255</ele>
        <time>2012-03-25T15:36:21Z</time>
      </trkpt>
      <trkpt lat="59.9566099" lon="17.7902229">
        <ele>33.7834</ele>
        <time>2012-03-25T15:36:27Z</time>
      </trkpt>
      <trkpt lat="59.9566481" lon="17.7897365">
        <ele>32.3416</ele>
        <time>2012-03-25T15:36:31Z</time>
      </trkpt>
      <trkpt lat="59.9567858" lon="17.7894754">
        <ele>32.3416</ele>
        <time>2012-03-25T15:36:34Z</time>
      </trkpt>
      <trkpt lat="59.9571195" lon="17.7889936">
        <ele>31.3801</ele>
        <time>2012-03-25T15:36:41Z</time>
      </trkpt>
      <trkpt lat="59.9571966" lon="17.7888414">
        <ele>31.3801</ele>
        <time>2012-03-25T15:36:43Z</time>
      </trkpt>
      <trkpt lat="59.9574039" lon="17.788194">
        <ele>30.8995</ele>
        <time>2012-03-25T15:36:51Z</time>
      </trkpt>
      <trkpt lat="59.9576158" lon="17.7873718">
        <ele>31.3801</ele>
        <time>2012-03-25T15:37:00Z</time>
      </trkpt>
      <trkpt lat="59.957719" lon="17.7868864">
        <ele>32.3416</ele>
        <time>2012-03-25T15:37:05Z</time>
      </trkpt>
      <trkpt lat="59.9578727" lon="17.7865315">
        <ele>31.8607</ele>
        <time>2012-03-25T15:37:09Z</time>
      </trkpt>
      <trkpt lat="59.9582738" lon="17.7860497">
        <ele>32.8223</ele>
        <time>2012-03-25T15:37:17Z</time>
      </trkpt>
      <trkpt lat="59.9586792" lon="17.7855974">
        <ele>33.7834</ele>
        <time>2012-03-25T15:37:26Z</time>
      </trkpt>
      <trkpt lat="59.9590723" lon="17.7852776">
        <ele>33.7834</ele>
        <time>2012-03-25T15:37:35Z</time>
      </trkpt>
      <trkpt lat="59.9593883" lon="17.7849423">
        <ele>33.7834</ele>
        <time>2012-03-25T15:37:43Z</time>
      </trkpt>
      <trkpt lat="59.9597071" lon="17.7844377">
        <ele>33.7834</ele>
        <time>2012-03-25T15:37:52Z</time>
      </trkpt>
      <trkpt lat="59.9599571" lon="17.7839098">
        <ele>33.7834</ele>
        <time>2012-03-25T15:37:59Z</time>
      </trkpt>
      <trkpt lat="59.9601733" lon="17.7832332">
        <ele>34.2642</ele>
        <time>2012-03-25T15:38:06Z</time>
      </trkpt>
      <trkpt lat="59.9603215" lon="17.7828353">
        <ele>35.2255</ele>
        <time>2012-03-25T15:38:11Z</time>
      </trkpt>
      <trkpt lat="59.9604771" lon="17.782461">
        <ele>35.7061</ele>
        <time>2012-03-25T15:38:16Z</time>
      </trkpt>
      <trkpt lat="59.9605436" lon="17.7821703">
        <ele>35.2255</ele>
        <time>2012-03-25T15:38:19Z</time>
      </trkpt>
      <trkpt lat="59.9605913" lon="17.7820305">
        <ele>35.2255</ele>
        <time>2012-03-25T15:38:21Z</time>
      </trkpt>
      <trkpt lat="59.9606906" lon="17.7817856">
        <ele>35.2255</ele>
        <time>2012-03-25T15:38:28Z</time>
      </trkpt>
      <trkpt lat="59.9608483" lon="17.7815318">
        <ele>34.2642</ele>
        <time>2012-03-25T15:38:33Z</time>
      </trkpt>
      <trkpt lat="59.9611253" lon="17.7810375">
        <ele>33.3029</ele>
        <time>2012-03-25T15:38:41Z</time>
      </trkpt>
      <trkpt lat="59.9614961" lon="17.7803448">
        <ele>32.3416</ele>
        <time>2012-03-25T15:38:51Z</time>
      </trkpt>
      <trkpt lat="59.961804" lon="17.7796653">
        <ele>32.3416</ele>
        <time>2012-03-25T15:39:00Z</time>
      </trkpt>
      <trkpt lat="59.9621157" lon="17.7789795">
        <ele>31.3801</ele>
        <time>2012-03-25T15:39:09Z</time>
      </trkpt>
      <trkpt lat="59.9624759" lon="17.7781458">
        <ele>31.3801</ele>
        <time>2012-03-25T15:39:19Z</time>
      </trkpt>
      <trkpt lat="59.9627908" lon="17.7774866">
        <ele>32.8223</ele>
        <time>2012-03-25T15:39:28Z</time>
      </trkpt>
      <trkpt lat="59.9630777" lon="17.776765">
        <ele>33.3029</ele>
        <time>2012-03-25T15:39:37Z</time>
      </trkpt>
      <trkpt lat="59.9633091" lon="17.776001">
        <ele>33.3029</ele>
        <time>2012-03-25T15:39:46Z</time>
      </trkpt>
      <trkpt lat="59.963549" lon="17.7752335">
        <ele>32.8223</ele>
        <time>2012-03-25T15:39:54Z</time>
      </trkpt>
      <trkpt lat="59.9636984" lon="17.7744615">
        <ele>33.3029</ele>
        <time>2012-03-25T15:40:01Z</time>
      </trkpt>
      <trkpt lat="59.9638589" lon="17.7734897">
        <ele>33.3029</ele>
        <time>2012-03-25T15:40:10Z</time>
      </trkpt>
      <trkpt lat="59.9639054" lon="17.7729268">
        <ele>33.7834</ele>
        <time>2012-03-25T15:40:15Z</time>
      </trkpt>
      <trkpt lat="59.9638521" lon="17.7723561">
        <ele>34.2642</ele>
        <time>2012-03-25T15:40:20Z</time>
      </trkpt>
      <trkpt lat="59.9637893" lon="17.7720718">
        <ele>35.2255</ele>
        <time>2012-03-25T15:40:23Z</time>
      </trkpt>
      <trkpt lat="59.9635779" lon="17.7710803">
        <ele>36.6675</ele>
        <time>2012-03-25T15:40:33Z</time>
      </trkpt>
      <trkpt lat="59.9634963" lon="17.7703584">
        <ele>38.5901</ele>
        <time>2012-03-25T15:40:40Z</time>
      </trkpt>
      <trkpt lat="59.9634993" lon="17.7698402">
        <ele>38.1094</ele>
        <time>2012-03-25T15:40:45Z</time>
      </trkpt>
      <trkpt lat="59.9635745" lon="17.7694191">
        <ele>37.6287</ele>
        <time>2012-03-25T15:40:49Z</time>
      </trkpt>
      <trkpt lat="59.9638875" lon="17.7683032">
        <ele>36.6675</ele>
        <time>2012-03-25T15:41:00Z</time>
      </trkpt>
      <trkpt lat="59.9640219" lon="17.767648">
        <ele>37.1481</ele>
        <time>2012-03-25T15:41:07Z</time>
      </trkpt>
      <trkpt lat="59.9640925" lon="17.7671476">
        <ele>36.6675</ele>
        <time>2012-03-25T15:41:12Z</time>
      </trkpt>
      <trkpt lat="59.9640794" lon="17.7663507">
        <ele>35.2255</ele>
        <time>2012-03-25T15:41:19Z</time>
      </trkpt>
      <trkpt lat="59.9640908" lon="17.7659478">
        <ele>34.2642</ele>
        <time>2012-03-25T15:41:22Z</time>
      </trkpt>
      <trkpt lat="59.9641504" lon="17.7651526">
        <ele>31.3801</ele>
        <time>2012-03-25T15:41:27Z</time>
      </trkpt>
      <trkpt lat="59.9641831" lon="17.7649849">
        <ele>31.3801</ele>
        <time>2012-03-25T15:41:28Z</time>
      </trkpt>
      <trkpt lat="59.9644669" lon="17.7639017">
        <ele>31.8607</ele>
        <time>2012-03-25T15:41:35Z</time>
      </trkpt>
      <trkpt lat="59.9648368" lon="17.7625135">
        <ele>29.9381</ele>
        <time>2012-03-25T15:41:45Z</time>
      </trkpt>
      <trkpt lat="59.9650731" lon="17.7618528">
        <ele>29.9381</ele>
        <time>2012-03-25T15:41:51Z</time>
      </trkpt>
      <trkpt lat="59.9653679" lon="17.761125">
        <ele>29.4575</ele>
        <time>2012-03-25T15:41:59Z</time>
      </trkpt>
      <trkpt lat="59.9656066" lon="17.7606599">
        <ele>28.0155</ele>
        <time>2012-03-25T15:42:05Z</time>
      </trkpt>
      <trkpt lat="59.9658978" lon="17.760137">
        <ele>25.1317</ele>
        <time>2012-03-25T15:42:13Z</time>
      </trkpt>
      <trkpt lat="59.9661156" lon="17.7597665">
        <ele>24.651</ele>
        <time>2012-03-25T15:42:19Z</time>
      </trkpt>
      <trkpt lat="59.9663262" lon="17.7594255">
        <ele>27.5349</ele>
        <time>2012-03-25T15:42:25Z</time>
      </trkpt>
      <trkpt lat="59.9665334" lon="17.7591267">
        <ele>29.9381</ele>
        <time>2012-03-25T15:42:31Z</time>
      </trkpt>
      <trkpt lat="59.966652" lon="17.7589934">
        <ele>32.3416</ele>
        <time>2012-03-25T15:42:34Z</time>
      </trkpt>
      <trkpt lat="59.9669213" lon="17.7587156">
        <ele>32.8223</ele>
        <time>2012-03-25T15:42:41Z</time>
      </trkpt>
      <trkpt lat="59.9672097" lon="17.7584849">
        <ele>34.2642</ele>
        <time>2012-03-25T15:42:48Z</time>
      </trkpt>
      <trkpt lat="59.967455" lon="17.7582227">
        <ele>33.3029</ele>
        <time>2012-03-25T15:42:55Z</time>
      </trkpt>
      <trkpt lat="59.9675642" lon="17.7581057">
        <ele>32.3416</ele>
        <time>2012-03-25T15:42:58Z</time>
      </trkpt>
      <trkpt lat="59.967848" lon="17.7578103">
        <ele>32.3416</ele>
        <time>2012-03-25T15:43:05Z</time>
      </trkpt>
      <trkpt lat="59.9680856" lon="17.7575102">
        <ele>32.3416</ele>
        <time>2012-03-25T15:43:12Z</time>
      </trkpt>
      <trkpt lat="59.9682847" lon="17.7572262">
        <ele>33.3029</ele>
        <time>2012-03-25T15:43:19Z</time>
      </trkpt>
      <trkpt lat="59.9685415" lon="17.7568582">
        <ele>33.3029</ele>
        <time>2012-03-25T15:43:27Z</time>
      </trkpt>
      <trkpt lat="59.9687634" lon="17.7565036">
        <ele>32.8223</ele>
        <time>2012-03-25T15:43:34Z</time>
      </trkpt>
      <trkpt lat="59.9689918" lon="17.7560342">
        <ele>32.3416</ele>
        <time>2012-03-25T15:43:41Z</time>
      </trkpt>
      <trkpt lat="59.969326" lon="17.7553322">
        <ele>32.8223</ele>
        <time>2012-03-25T15:43:50Z</time>
      </trkpt>
      <trkpt lat="59.9696062" lon="17.7547522">
        <ele>34.2642</ele>
        <time>2012-03-25T15:43:58Z</time>
      </trkpt>
      <trkpt lat="59.9699149" lon="17.754121">
        <ele>34.2642</ele>
        <time>2012-03-25T15:44:07Z</time>
      </trkpt>
      <trkpt lat="59.9702165" lon="17.7533694">
        <ele>34.7449</ele>
        <time>2012-03-25T15:44:16Z</time>
      </trkpt>
      <trkpt lat="59.9705329" lon="17.7525315">
        <ele>35.7061</ele>
        <time>2012-03-25T15:44:26Z</time>
      </trkpt>
      <trkpt lat="59.9707868" lon="17.7520285">
        <ele>33.3029</ele>
        <time>2012-03-25T15:44:33Z</time>
      </trkpt>
      <trkpt lat="59.9710529" lon="17.7516291">
        <ele>33.3029</ele>
        <time>2012-03-25T15:44:40Z</time>
      </trkpt>
      <trkpt lat="59.9714616" lon="17.7511342">
        <ele>34.7449</ele>
        <time>2012-03-25T15:44:51Z</time>
      </trkpt>
      <trkpt lat="59.9716974" lon="17.750783">
        <ele>35.7061</ele>
        <time>2012-03-25T15:44:59Z</time>
      </trkpt>
      <trkpt lat="59.9718897" lon="17.7504222">
        <ele>35.7061</ele>
        <time>2012-03-25T15:45:06Z</time>
      </trkpt>
      <trkpt lat="59.9720728" lon="17.7500325">
        <ele>35.7061</ele>
        <time>2012-03-25T15:45:13Z</time>
      </trkpt>
      <trkpt lat="59.9722521" lon="17.749683">
        <ele>38.5901</ele>
        <time>2012-03-25T15:45:19Z</time>
      </trkpt>
      <trkpt lat="59.972303" lon="17.749563">
        <ele>38.5901</ele>
        <time>2012-03-25T15:45:21Z</time>
      </trkpt>
      <trkpt lat="59.9725127" lon="17.7490567">
        <ele>38.1094</ele>
        <time>2012-03-25T15:45:29Z</time>
      </trkpt>
      <trkpt lat="59.9727385" lon="17.7485272">
        <ele>36.6675</ele>
        <time>2012-03-25T15:45:37Z</time>
      </trkpt>
      <trkpt lat="59.9729587" lon="17.7480976">
        <ele>34.7449</ele>
        <time>2012-03-25T15:45:43Z</time>
      </trkpt>
      <trkpt lat="59.9730335" lon="17.7479848">
        <ele>33.7834</ele>
        <time>2012-03-25T15:45:45Z</time>
      </trkpt>
      <trkpt lat="59.9733548" lon="17.7476166">
        <ele>35.7061</ele>
        <time>2012-03-25T15:45:53Z</time>
      </trkpt>
      <trkpt lat="59.9736654" lon="17.7472964">
        <ele>37.6287</ele>
        <time>2012-03-25T15:46:01Z</time>
      </trkpt>
      <trkpt lat="59.9739817" lon="17.7469336">
        <ele>39.5513</ele>
        <time>2012-03-25T15:46:09Z</time>
      </trkpt>
      <trkpt lat="59.9743589" lon="17.7464717">
        <ele>40.0321</ele>
        <time>2012-03-25T15:46:18Z</time>
      </trkpt>
      <trkpt lat="59.974505" lon="17.7462713">
        <ele>40.5128</ele>
        <time>2012-03-25T15:46:22Z</time>
      </trkpt>
      <trkpt lat="59.9747817" lon="17.745716">
        <ele>41.474</ele>
        <time>2012-03-25T15:46:30Z</time>
      </trkpt>
      <trkpt lat="59.975024" lon="17.745051">
        <ele>41.9547</ele>
        <time>2012-03-25T15:46:37Z</time>
      </trkpt>
      <trkpt lat="59.9752241" lon="17.7442853">
        <ele>41.474</ele>
        <time>2012-03-25T15:46:44Z</time>
      </trkpt>
      <trkpt lat="59.9754254" lon="17.7433229">
        <ele>40.5128</ele>
        <time>2012-03-25T15:46:53Z</time>
      </trkpt>
      <trkpt lat="59.9756455" lon="17.7424954">
        <ele>41.474</ele>
        <time>2012-03-25T15:47:01Z</time>
      </trkpt>
      <trkpt lat="59.9758524" lon="17.7417216">
        <ele>40.5128</ele>
        <time>2012-03-25T15:47:08Z</time>
      </trkpt>
      <trkpt lat="59.9760733" lon="17.7408104">
        <ele>38.5901</ele>
        <time>2012-03-25T15:47:16Z</time>
      </trkpt>
      <trkpt lat="59.9763202" lon="17.7400456">
        <ele>37.1481</ele>
        <time>2012-03-25T15:47:24Z</time>
      </trkpt>
      <trkpt lat="59.9763922" lon="17.7398619">
        <ele>36.6675</ele>
        <time>2012-03-25T15:47:26Z</time>
      </trkpt>
      <trkpt lat="59.9765798" lon="17.7395815">
        <ele>37.1481</ele>
        <time>2012-03-25T15:47:30Z</time>
      </trkpt>
      <trkpt lat="59.9766816" lon="17.7394976">
        <ele>37.1481</ele>
        <time>2012-03-25T15:47:32Z</time>
      </trkpt>
      <trkpt lat="59.976982" lon="17.7393722">
        <ele>37.6287</ele>
        <time>2012-03-25T15:47:39Z</time>
      </trkpt>
      <trkpt lat="59.9770962" lon="17.7393212">
        <ele>38.1094</ele>
        <time>2012-03-25T15:47:42Z</time>
      </trkpt>
      <trkpt lat="59.9774088" lon="17.7391331">
        <ele>36.1868</ele>
        <time>2012-03-25T15:47:51Z</time>
      </trkpt>
      <trkpt lat="59.9776372" lon="17.7390814">
        <ele>37.1481</ele>
        <time>2012-03-25T15:47:58Z</time>
      </trkpt>
      <trkpt lat="59.9778763" lon="17.7391506">
        <ele>38.1094</ele>
        <time>2012-03-25T15:48:06Z</time>
      </trkpt>
      <trkpt lat="59.9781511" lon="17.7392688">
        <ele>39.0707</ele>
        <time>2012-03-25T15:48:15Z</time>
      </trkpt>
      <trkpt lat="59.9783124" lon="17.7393407">
        <ele>39.0707</ele>
        <time>2012-03-25T15:48:20Z</time>
      </trkpt>
      <trkpt lat="59.978484" lon="17.7393812">
        <ele>38.5901</ele>
        <time>2012-03-25T15:48:26Z</time>
      </trkpt>
      <trkpt lat="59.9787572" lon="17.7393443">
        <ele>35.2255</ele>
        <time>2012-03-25T15:48:33Z</time>
      </trkpt>
      <trkpt lat="59.9788594" lon="17.7394042">
        <ele>34.7449</ele>
        <time>2012-03-25T15:48:36Z</time>
      </trkpt>
      <trkpt lat="59.9789512" lon="17.7397092">
        <ele>35.7061</ele>
        <time>2012-03-25T15:48:42Z</time>
      </trkpt>
      <trkpt lat="59.9789519" lon="17.739721">
        <ele>34.7449</ele>
        <time>2012-03-25T15:48:43Z</time>
      </trkpt>
    </trkseg>
  </trk>
</gpx>